<?xml version="1.0" encoding="UTF-8" standalone="no" ?>
<gpx xmlns="http://www.topografix.com/GPX/1/1" xmlns:xsi="http://www.w3.org/2001/XMLSchema-instance" xsi:schemaLocation="http://www.topografix.com/GPX/1/1 http://www.topografix.com/GPX/1/1/gpx.xsd" version="1.1" creator="VisuGPX - https://www.visugpx.com">
  <metadata>
    <name>Pomeys-Est-52-1400</name>
    <desc><![CDATA[Week-end VTT 2019 - Pomeys-Est - 52 km - D+ : 1400 m]]></desc>
  </metadata>
  <trk>
    <name><![CDATA[Pomeys-Est-52-1400]]></name>
    <trkseg>
      <trkpt lat="45.64463" lon="4.4483">
        <ele>632.275635</ele>
        <time>2019-07-11T18:26:48Z</time>
      </trkpt>
      <trkpt lat="45.64463" lon="4.4483">
        <ele>632.275635</ele>
        <time>2019-07-11T18:26:48Z</time>
      </trkpt>
      <trkpt lat="45.64458" lon="4.44795">
        <ele>630.575012</ele>
        <time>2019-07-11T18:26:59Z</time>
      </trkpt>
      <trkpt lat="45.6448" lon="4.44771">
        <ele>629.01001</ele>
        <time>2019-07-11T18:27:01Z</time>
      </trkpt>
      <trkpt lat="45.64523" lon="4.44766">
        <ele>628.437744</ele>
        <time>2019-07-11T18:27:06Z</time>
      </trkpt>
      <trkpt lat="45.64542" lon="4.4477">
        <ele>628.194763</ele>
        <time>2019-07-11T18:27:07Z</time>
      </trkpt>
      <trkpt lat="45.64546" lon="4.44735">
        <ele>626.809937</ele>
        <time>2019-07-11T18:27:20Z</time>
      </trkpt>
      <trkpt lat="45.64512" lon="4.44665">
        <ele>622.929382</ele>
        <time>2019-07-11T18:27:36Z</time>
      </trkpt>
      <trkpt lat="45.64512" lon="4.44645">
        <ele>622.877686</ele>
        <time>2019-07-11T18:28:09Z</time>
      </trkpt>
      <trkpt lat="45.64485" lon="4.44656">
        <ele>621.931335</ele>
        <time>2019-07-11T18:28:17Z</time>
      </trkpt>
      <trkpt lat="45.64456" lon="4.44676">
        <ele>622.439636</ele>
        <time>2019-07-11T18:28:24Z</time>
      </trkpt>
      <trkpt lat="45.64396" lon="4.44683">
        <ele>623.61499</ele>
        <time>2019-07-11T18:28:29Z</time>
      </trkpt>
      <trkpt lat="45.64323" lon="4.4476">
        <ele>626.04126</ele>
        <time>2019-07-11T18:28:37Z</time>
      </trkpt>
      <trkpt lat="45.64275" lon="4.44774">
        <ele>626.028748</ele>
        <time>2019-07-11T18:28:44Z</time>
      </trkpt>
      <trkpt lat="45.6421" lon="4.44804">
        <ele>627.352478</ele>
        <time>2019-07-11T18:28:51Z</time>
      </trkpt>
      <trkpt lat="45.64156" lon="4.44821">
        <ele>627.526245</ele>
        <time>2019-07-11T18:29:01Z</time>
      </trkpt>
      <trkpt lat="45.64055" lon="4.44794">
        <ele>625.950012</ele>
        <time>2019-07-11T18:29:04Z</time>
      </trkpt>
      <trkpt lat="45.63919" lon="4.44762">
        <ele>623.616516</ele>
        <time>2019-07-11T18:29:05Z</time>
      </trkpt>
      <trkpt lat="45.63881" lon="4.44777">
        <ele>623.049072</ele>
        <time>2019-07-11T18:29:10Z</time>
      </trkpt>
      <trkpt lat="45.63789" lon="4.44829">
        <ele>622.770691</ele>
        <time>2019-07-11T18:29:16Z</time>
      </trkpt>
      <trkpt lat="45.63751" lon="4.44893">
        <ele>622.13501</ele>
        <time>2019-07-11T18:29:24Z</time>
      </trkpt>
      <trkpt lat="45.63701" lon="4.4491">
        <ele>620.505005</ele>
        <time>2019-07-11T18:29:26Z</time>
      </trkpt>
      <trkpt lat="45.63677" lon="4.44757">
        <ele>621.432495</ele>
        <time>2019-07-11T18:29:28Z</time>
      </trkpt>
      <trkpt lat="45.63672" lon="4.44713">
        <ele>621.297485</ele>
        <time>2019-07-11T18:29:39Z</time>
      </trkpt>
      <trkpt lat="45.63624" lon="4.44716">
        <ele>619.992676</ele>
        <time>2019-07-11T18:29:43Z</time>
      </trkpt>
      <trkpt lat="45.63615" lon="4.44708">
        <ele>619.959656</ele>
        <time>2019-07-11T18:29:50Z</time>
      </trkpt>
      <trkpt lat="45.63607" lon="4.44684">
        <ele>619.200012</ele>
        <time>2019-07-11T18:29:53Z</time>
      </trkpt>
      <trkpt lat="45.63602" lon="4.44677">
        <ele>618.637512</ele>
        <time>2019-07-11T18:29:57Z</time>
      </trkpt>
      <trkpt lat="45.63551" lon="4.44705">
        <ele>612.174194</ele>
        <time>2019-07-11T18:30:00Z</time>
      </trkpt>
      <trkpt lat="45.63485" lon="4.44737">
        <ele>603.931458</ele>
        <time>2019-07-11T18:30:05Z</time>
      </trkpt>
      <trkpt lat="45.63353" lon="4.44808">
        <ele>589.908752</ele>
        <time>2019-07-11T18:30:07Z</time>
      </trkpt>
      <trkpt lat="45.63321" lon="4.44815">
        <ele>586.469604</ele>
        <time>2019-07-11T18:30:10Z</time>
      </trkpt>
      <trkpt lat="45.63291" lon="4.44835">
        <ele>582.091187</ele>
        <time>2019-07-11T18:30:21Z</time>
      </trkpt>
      <trkpt lat="45.63279" lon="4.44858">
        <ele>579.3125</ele>
        <time>2019-07-11T18:30:25Z</time>
      </trkpt>
      <trkpt lat="45.63269" lon="4.44901">
        <ele>574.972473</ele>
        <time>2019-07-11T18:30:26Z</time>
      </trkpt>
      <trkpt lat="45.63264" lon="4.44946">
        <ele>570.32373</ele>
        <time>2019-07-11T18:30:29Z</time>
      </trkpt>
      <trkpt lat="45.63259" lon="4.44988">
        <ele>566.864136</ele>
        <time>2019-07-11T18:30:33Z</time>
      </trkpt>
      <trkpt lat="45.63257" lon="4.45048">
        <ele>559.647949</ele>
        <time>2019-07-11T18:30:39Z</time>
      </trkpt>
      <trkpt lat="45.63265" lon="4.45061">
        <ele>559.659241</ele>
        <time>2019-07-11T18:30:42Z</time>
      </trkpt>
      <trkpt lat="45.6326" lon="4.4507">
        <ele>557.409485</ele>
        <time>2019-07-11T18:30:50Z</time>
      </trkpt>
      <trkpt lat="45.63242" lon="4.4506">
        <ele>555.300232</ele>
        <time>2019-07-11T18:30:51Z</time>
      </trkpt>
      <trkpt lat="45.63217" lon="4.45066">
        <ele>551.559265</ele>
        <time>2019-07-11T18:31:01Z</time>
      </trkpt>
      <trkpt lat="45.63188" lon="4.45092">
        <ele>546.419128</ele>
        <time>2019-07-11T18:31:03Z</time>
      </trkpt>
      <trkpt lat="45.6318" lon="4.45092">
        <ele>546.767822</ele>
        <time>2019-07-11T18:31:04Z</time>
      </trkpt>
      <trkpt lat="45.63184" lon="4.45104">
        <ele>544.871033</ele>
        <time>2019-07-11T18:31:11Z</time>
      </trkpt>
      <trkpt lat="45.63184" lon="4.45171">
        <ele>541.322266</ele>
        <time>2019-07-11T18:31:12Z</time>
      </trkpt>
      <trkpt lat="45.63182" lon="4.45195">
        <ele>542.165527</ele>
        <time>2019-07-11T18:31:30Z</time>
      </trkpt>
      <trkpt lat="45.63163" lon="4.45229">
        <ele>547.762207</ele>
        <time>2019-07-11T18:32:01Z</time>
      </trkpt>
      <trkpt lat="45.63152" lon="4.45241">
        <ele>549.220764</ele>
        <time>2019-07-11T18:32:04Z</time>
      </trkpt>
      <trkpt lat="45.63138" lon="4.4525">
        <ele>550.238342</ele>
        <time>2019-07-11T18:32:11Z</time>
      </trkpt>
      <trkpt lat="45.63125" lon="4.45261">
        <ele>551.28418</ele>
        <time>2019-07-11T18:32:19Z</time>
      </trkpt>
      <trkpt lat="45.63113" lon="4.45283">
        <ele>554.328552</ele>
        <time>2019-07-11T18:32:20Z</time>
      </trkpt>
      <trkpt lat="45.63105" lon="4.45271">
        <ele>551.35498</ele>
        <time>2019-07-11T18:32:26Z</time>
      </trkpt>
      <trkpt lat="45.63113" lon="4.45283">
        <ele>554.328552</ele>
        <time>2019-07-11T18:32:42Z</time>
      </trkpt>
      <trkpt lat="45.63083" lon="4.45337">
        <ele>562.352051</ele>
        <time>2019-07-11T18:32:51Z</time>
      </trkpt>
      <trkpt lat="45.63077" lon="4.45358">
        <ele>563.970703</ele>
        <time>2019-07-11T18:32:55Z</time>
      </trkpt>
      <trkpt lat="45.63078" lon="4.45364">
        <ele>564.511475</ele>
        <time>2019-07-11T18:32:59Z</time>
      </trkpt>
      <trkpt lat="45.63073" lon="4.45378">
        <ele>565.509888</ele>
        <time>2019-07-11T18:33:04Z</time>
      </trkpt>
      <trkpt lat="45.63066" lon="4.45405">
        <ele>566.757996</ele>
        <time>2019-07-11T18:33:09Z</time>
      </trkpt>
      <trkpt lat="45.63066" lon="4.45437">
        <ele>567.927124</ele>
        <time>2019-07-11T18:33:26Z</time>
      </trkpt>
      <trkpt lat="45.6307" lon="4.45459">
        <ele>568.875305</ele>
        <time>2019-07-11T18:33:29Z</time>
      </trkpt>
      <trkpt lat="45.63057" lon="4.45505">
        <ele>567.031555</ele>
        <time>2019-07-11T18:33:32Z</time>
      </trkpt>
      <trkpt lat="45.63054" lon="4.45501">
        <ele>566.795654</ele>
        <time>2019-07-11T18:33:41Z</time>
      </trkpt>
      <trkpt lat="45.63055" lon="4.4556">
        <ele>567.328674</ele>
        <time>2019-07-11T18:33:44Z</time>
      </trkpt>
      <trkpt lat="45.63048" lon="4.45558">
        <ele>566.417603</ele>
        <time>2019-07-11T18:33:46Z</time>
      </trkpt>
      <trkpt lat="45.63047" lon="4.45566">
        <ele>566.400635</ele>
        <time>2019-07-11T18:33:49Z</time>
      </trkpt>
      <trkpt lat="45.63051" lon="4.45606">
        <ele>568.07782</ele>
        <time>2019-07-11T18:33:55Z</time>
      </trkpt>
      <trkpt lat="45.63055" lon="4.45612">
        <ele>568.739868</ele>
        <time>2019-07-11T18:34:00Z</time>
      </trkpt>
      <trkpt lat="45.6303" lon="4.45718">
        <ele>571.40979</ele>
        <time>2019-07-11T18:34:05Z</time>
      </trkpt>
      <trkpt lat="45.62984" lon="4.45894">
        <ele>563.18396</ele>
        <time>2019-07-11T18:34:11Z</time>
      </trkpt>
      <trkpt lat="45.62972" lon="4.45891">
        <ele>562.125183</ele>
        <time>2019-07-11T18:34:14Z</time>
      </trkpt>
      <trkpt lat="45.62941" lon="4.45894">
        <ele>558.545837</ele>
        <time>2019-07-11T18:34:20Z</time>
      </trkpt>
      <trkpt lat="45.62909" lon="4.45901">
        <ele>553.430542</ele>
        <time>2019-07-11T18:34:28Z</time>
      </trkpt>
      <trkpt lat="45.62902" lon="4.45905">
        <ele>551.882813</ele>
        <time>2019-07-11T18:34:44Z</time>
      </trkpt>
      <trkpt lat="45.62877" lon="4.45903">
        <ele>546.124878</ele>
        <time>2019-07-11T18:34:47Z</time>
      </trkpt>
      <trkpt lat="45.62873" lon="4.46001">
        <ele>545.883362</ele>
        <time>2019-07-11T18:34:51Z</time>
      </trkpt>
      <trkpt lat="45.62856" lon="4.46049">
        <ele>543.879333</ele>
        <time>2019-07-11T18:35:01Z</time>
      </trkpt>
      <trkpt lat="45.62852" lon="4.46074">
        <ele>543.980957</ele>
        <time>2019-07-11T18:35:05Z</time>
      </trkpt>
      <trkpt lat="45.62852" lon="4.46094">
        <ele>544.175354</ele>
        <time>2019-07-11T18:35:10Z</time>
      </trkpt>
      <trkpt lat="45.62856" lon="4.46126">
        <ele>543.325195</ele>
        <time>2019-07-11T18:35:14Z</time>
      </trkpt>
      <trkpt lat="45.62866" lon="4.46152">
        <ele>543.919983</ele>
        <time>2019-07-11T18:35:22Z</time>
      </trkpt>
      <trkpt lat="45.6292" lon="4.46226">
        <ele>548.544128</ele>
        <time>2019-07-11T18:35:34Z</time>
      </trkpt>
      <trkpt lat="45.62923" lon="4.46244">
        <ele>548.876221</ele>
        <time>2019-07-11T18:35:37Z</time>
      </trkpt>
      <trkpt lat="45.62921" lon="4.46259">
        <ele>548.6203</ele>
        <time>2019-07-11T18:35:44Z</time>
      </trkpt>
      <trkpt lat="45.62897" lon="4.46303">
        <ele>547.885315</ele>
        <time>2019-07-11T18:35:47Z</time>
      </trkpt>
      <trkpt lat="45.62892" lon="4.46319">
        <ele>548.107727</ele>
        <time>2019-07-11T18:35:54Z</time>
      </trkpt>
      <trkpt lat="45.62891" lon="4.46332">
        <ele>548.558472</ele>
        <time>2019-07-11T18:36:03Z</time>
      </trkpt>
      <trkpt lat="45.62896" lon="4.46349">
        <ele>549.633362</ele>
        <time>2019-07-11T18:36:26Z</time>
      </trkpt>
      <trkpt lat="45.62914" lon="4.46381">
        <ele>551.406128</ele>
        <time>2019-07-11T18:36:27Z</time>
      </trkpt>
      <trkpt lat="45.62895" lon="4.46384">
        <ele>548.863342</ele>
        <time>2019-07-11T18:36:32Z</time>
      </trkpt>
      <trkpt lat="45.62876" lon="4.46397">
        <ele>544.796448</ele>
        <time>2019-07-11T18:36:53Z</time>
      </trkpt>
      <trkpt lat="45.62852" lon="4.46409">
        <ele>539.699585</ele>
        <time>2019-07-11T18:37:01Z</time>
      </trkpt>
      <trkpt lat="45.62838" lon="4.46413">
        <ele>537.606201</ele>
        <time>2019-07-11T18:37:19Z</time>
      </trkpt>
      <trkpt lat="45.62811" lon="4.46413">
        <ele>533.752747</ele>
        <time>2019-07-11T18:37:23Z</time>
      </trkpt>
      <trkpt lat="45.62779" lon="4.46429">
        <ele>527.902039</ele>
        <time>2019-07-11T18:37:42Z</time>
      </trkpt>
      <trkpt lat="45.62714" lon="4.46438">
        <ele>517.704834</ele>
        <time>2019-07-11T18:38:00Z</time>
      </trkpt>
      <trkpt lat="45.62705" lon="4.46423">
        <ele>516.144897</ele>
        <time>2019-07-11T18:38:09Z</time>
      </trkpt>
      <trkpt lat="45.62704" lon="4.46395">
        <ele>515.778992</ele>
        <time>2019-07-11T18:38:30Z</time>
      </trkpt>
      <trkpt lat="45.62681" lon="4.46444">
        <ele>510.361694</ele>
        <time>2019-07-11T18:38:36Z</time>
      </trkpt>
      <trkpt lat="45.62667" lon="4.46462">
        <ele>507.034119</ele>
        <time>2019-07-11T18:38:47Z</time>
      </trkpt>
      <trkpt lat="45.6265" lon="4.46472">
        <ele>503.100189</ele>
        <time>2019-07-11T18:39:04Z</time>
      </trkpt>
      <trkpt lat="45.62632" lon="4.46478">
        <ele>500.784576</ele>
        <time>2019-07-11T18:39:09Z</time>
      </trkpt>
      <trkpt lat="45.62599" lon="4.46479">
        <ele>506.745789</ele>
        <time>2019-07-11T18:39:12Z</time>
      </trkpt>
      <trkpt lat="45.62547" lon="4.46486">
        <ele>518.783875</ele>
        <time>2019-07-11T18:39:16Z</time>
      </trkpt>
      <trkpt lat="45.62536" lon="4.46491">
        <ele>521.240479</ele>
        <time>2019-07-11T18:39:23Z</time>
      </trkpt>
      <trkpt lat="45.62509" lon="4.46516">
        <ele>528.384766</ele>
        <time>2019-07-11T18:39:33Z</time>
      </trkpt>
      <trkpt lat="45.62498" lon="4.46526">
        <ele>531.453735</ele>
        <time>2019-07-11T18:39:41Z</time>
      </trkpt>
      <trkpt lat="45.62485" lon="4.46561">
        <ele>535.836243</ele>
        <time>2019-07-11T18:39:44Z</time>
      </trkpt>
      <trkpt lat="45.62472" lon="4.46612">
        <ele>540.690247</ele>
        <time>2019-07-11T18:39:55Z</time>
      </trkpt>
      <trkpt lat="45.62441" lon="4.46746">
        <ele>552.14679</ele>
        <time>2019-07-11T18:40:06Z</time>
      </trkpt>
      <trkpt lat="45.62437" lon="4.46756">
        <ele>553.021545</ele>
        <time>2019-07-11T18:40:09Z</time>
      </trkpt>
      <trkpt lat="45.62427" lon="4.46779">
        <ele>554.519348</ele>
        <time>2019-07-11T18:40:15Z</time>
      </trkpt>
      <trkpt lat="45.62368" lon="4.46875">
        <ele>559.640137</ele>
        <time>2019-07-11T18:40:51Z</time>
      </trkpt>
      <trkpt lat="45.62343" lon="4.46908">
        <ele>560.549988</ele>
        <time>2019-07-11T18:41:10Z</time>
      </trkpt>
      <trkpt lat="45.62276" lon="4.46962">
        <ele>562.551392</ele>
        <time>2019-07-11T18:41:22Z</time>
      </trkpt>
      <trkpt lat="45.62259" lon="4.46978">
        <ele>563.332764</ele>
        <time>2019-07-11T18:41:32Z</time>
      </trkpt>
      <trkpt lat="45.62195" lon="4.47048">
        <ele>571.5625</ele>
        <time>2019-07-11T18:41:40Z</time>
      </trkpt>
      <trkpt lat="45.62141" lon="4.47125">
        <ele>578.566223</ele>
        <time>2019-07-11T18:41:46Z</time>
      </trkpt>
      <trkpt lat="45.62103" lon="4.47139">
        <ele>582.971985</ele>
        <time>2019-07-11T18:41:54Z</time>
      </trkpt>
      <trkpt lat="45.62017" lon="4.47107">
        <ele>587.89447</ele>
        <time>2019-07-11T18:42:15Z</time>
      </trkpt>
      <trkpt lat="45.61996" lon="4.4713">
        <ele>584.195557</ele>
        <time>2019-07-11T18:42:21Z</time>
      </trkpt>
      <trkpt lat="45.6197" lon="4.47185">
        <ele>581.498474</ele>
        <time>2019-07-11T18:42:26Z</time>
      </trkpt>
      <trkpt lat="45.61908" lon="4.47238">
        <ele>589.330017</ele>
        <time>2019-07-11T18:42:30Z</time>
      </trkpt>
      <trkpt lat="45.61889" lon="4.47251">
        <ele>591.208557</ele>
        <time>2019-07-11T18:42:36Z</time>
      </trkpt>
      <trkpt lat="45.61874" lon="4.47258">
        <ele>592.876709</ele>
        <time>2019-07-11T18:42:38Z</time>
      </trkpt>
      <trkpt lat="45.61858" lon="4.4726">
        <ele>595.369263</ele>
        <time>2019-07-11T18:42:42Z</time>
      </trkpt>
      <trkpt lat="45.6183" lon="4.47277">
        <ele>597.992493</ele>
        <time>2019-07-11T18:42:45Z</time>
      </trkpt>
      <trkpt lat="45.61799" lon="4.47315">
        <ele>598.72998</ele>
        <time>2019-07-11T18:42:52Z</time>
      </trkpt>
      <trkpt lat="45.61767" lon="4.47332">
        <ele>601.234985</ele>
        <time>2019-07-11T18:42:54Z</time>
      </trkpt>
      <trkpt lat="45.61756" lon="4.47343">
        <ele>601.471191</ele>
        <time>2019-07-11T18:43:03Z</time>
      </trkpt>
      <trkpt lat="45.6171" lon="4.47365">
        <ele>604.993896</ele>
        <time>2019-07-11T18:43:08Z</time>
      </trkpt>
      <trkpt lat="45.61683" lon="4.47416">
        <ele>605.846497</ele>
        <time>2019-07-11T18:43:17Z</time>
      </trkpt>
      <trkpt lat="45.61675" lon="4.47435">
        <ele>606.214355</ele>
        <time>2019-07-11T18:43:29Z</time>
      </trkpt>
      <trkpt lat="45.61671" lon="4.47467">
        <ele>606.947266</ele>
        <time>2019-07-11T18:43:31Z</time>
      </trkpt>
      <trkpt lat="45.61584" lon="4.47648">
        <ele>627.749573</ele>
        <time>2019-07-11T18:43:36Z</time>
      </trkpt>
      <trkpt lat="45.6153" lon="4.47561">
        <ele>637.863647</ele>
        <time>2019-07-11T18:43:41Z</time>
      </trkpt>
      <trkpt lat="45.61495" lon="4.475">
        <ele>641.07373</ele>
        <time>2019-07-11T18:43:45Z</time>
      </trkpt>
      <trkpt lat="45.61465" lon="4.47456">
        <ele>640.091797</ele>
        <time>2019-07-11T18:43:49Z</time>
      </trkpt>
      <trkpt lat="45.61441" lon="4.47426">
        <ele>641.511841</ele>
        <time>2019-07-11T18:43:55Z</time>
      </trkpt>
      <trkpt lat="45.61419" lon="4.47407">
        <ele>643.184387</ele>
        <time>2019-07-11T18:43:58Z</time>
      </trkpt>
      <trkpt lat="45.61386" lon="4.47388">
        <ele>643.154907</ele>
        <time>2019-07-11T18:44:06Z</time>
      </trkpt>
      <trkpt lat="45.61347" lon="4.47504">
        <ele>647.982056</ele>
        <time>2019-07-11T18:44:08Z</time>
      </trkpt>
      <trkpt lat="45.61329" lon="4.47527">
        <ele>648.794739</ele>
        <time>2019-07-11T18:44:12Z</time>
      </trkpt>
      <trkpt lat="45.6131" lon="4.47544">
        <ele>649.92749</ele>
        <time>2019-07-11T18:44:19Z</time>
      </trkpt>
      <trkpt lat="45.61305" lon="4.47564">
        <ele>650.966309</ele>
        <time>2019-07-11T18:44:27Z</time>
      </trkpt>
      <trkpt lat="45.61288" lon="4.47595">
        <ele>651.619812</ele>
        <time>2019-07-11T18:44:34Z</time>
      </trkpt>
      <trkpt lat="45.61286" lon="4.47605">
        <ele>651.834717</ele>
        <time>2019-07-11T18:44:41Z</time>
      </trkpt>
      <trkpt lat="45.61304" lon="4.47615">
        <ele>649.981323</ele>
        <time>2019-07-11T18:44:48Z</time>
      </trkpt>
      <trkpt lat="45.61314" lon="4.47624">
        <ele>649.306152</ele>
        <time>2019-07-11T18:44:56Z</time>
      </trkpt>
      <trkpt lat="45.61334" lon="4.47654">
        <ele>649.469971</ele>
        <time>2019-07-11T18:45:03Z</time>
      </trkpt>
      <trkpt lat="45.61338" lon="4.47665">
        <ele>649.316284</ele>
        <time>2019-07-11T18:45:08Z</time>
      </trkpt>
      <trkpt lat="45.61348" lon="4.47719">
        <ele>649.021179</ele>
        <time>2019-07-11T18:45:17Z</time>
      </trkpt>
      <trkpt lat="45.61348" lon="4.47751">
        <ele>650.069092</ele>
        <time>2019-07-11T18:45:23Z</time>
      </trkpt>
      <trkpt lat="45.61331" lon="4.47799">
        <ele>652.201416</ele>
        <time>2019-07-11T18:45:29Z</time>
      </trkpt>
      <trkpt lat="45.61291" lon="4.47848">
        <ele>655.092529</ele>
        <time>2019-07-11T18:45:32Z</time>
      </trkpt>
      <trkpt lat="45.61285" lon="4.47857">
        <ele>654.880005</ele>
        <time>2019-07-11T18:45:47Z</time>
      </trkpt>
      <trkpt lat="45.61289" lon="4.47885">
        <ele>651.757507</ele>
        <time>2019-07-11T18:45:55Z</time>
      </trkpt>
      <trkpt lat="45.61289" lon="4.47918">
        <ele>649.775208</ele>
        <time>2019-07-11T18:46:08Z</time>
      </trkpt>
      <trkpt lat="45.61293" lon="4.47939">
        <ele>648.27124</ele>
        <time>2019-07-11T18:46:13Z</time>
      </trkpt>
      <trkpt lat="45.61303" lon="4.4796">
        <ele>646.257507</ele>
        <time>2019-07-11T18:46:22Z</time>
      </trkpt>
      <trkpt lat="45.61324" lon="4.47984">
        <ele>643.018738</ele>
        <time>2019-07-11T18:46:32Z</time>
      </trkpt>
      <trkpt lat="45.61332" lon="4.47998">
        <ele>641.402527</ele>
        <time>2019-07-11T18:46:39Z</time>
      </trkpt>
      <trkpt lat="45.61335" lon="4.48045">
        <ele>636.058533</ele>
        <time>2019-07-11T18:46:43Z</time>
      </trkpt>
      <trkpt lat="45.61331" lon="4.48059">
        <ele>634.440857</ele>
        <time>2019-07-11T18:46:51Z</time>
      </trkpt>
      <trkpt lat="45.61316" lon="4.48069">
        <ele>633.786621</ele>
        <time>2019-07-11T18:47:13Z</time>
      </trkpt>
      <trkpt lat="45.61286" lon="4.4807">
        <ele>634.613403</ele>
        <time>2019-07-11T18:47:28Z</time>
      </trkpt>
      <trkpt lat="45.61254" lon="4.48086">
        <ele>632.377869</ele>
        <time>2019-07-11T18:47:37Z</time>
      </trkpt>
      <trkpt lat="45.6124" lon="4.48121">
        <ele>626.563232</ele>
        <time>2019-07-11T18:47:45Z</time>
      </trkpt>
      <trkpt lat="45.61211" lon="4.48142">
        <ele>625.555664</ele>
        <time>2019-07-11T18:47:51Z</time>
      </trkpt>
      <trkpt lat="45.61191" lon="4.48168">
        <ele>626.551514</ele>
        <time>2019-07-11T18:47:57Z</time>
      </trkpt>
      <trkpt lat="45.61163" lon="4.48201">
        <ele>628.05719</ele>
        <time>2019-07-11T18:48:03Z</time>
      </trkpt>
      <trkpt lat="45.61139" lon="4.48224">
        <ele>629.442139</ele>
        <time>2019-07-11T18:48:07Z</time>
      </trkpt>
      <trkpt lat="45.61125" lon="4.48244">
        <ele>629.255859</ele>
        <time>2019-07-11T18:48:11Z</time>
      </trkpt>
      <trkpt lat="45.61087" lon="4.48256">
        <ele>632.125854</ele>
        <time>2019-07-11T18:48:15Z</time>
      </trkpt>
      <trkpt lat="45.61087" lon="4.48295">
        <ele>627.255005</ele>
        <time>2019-07-11T18:48:21Z</time>
      </trkpt>
      <trkpt lat="45.61082" lon="4.48331">
        <ele>623.336365</ele>
        <time>2019-07-11T18:48:28Z</time>
      </trkpt>
      <trkpt lat="45.61082" lon="4.48347">
        <ele>621.832886</ele>
        <time>2019-07-11T18:48:38Z</time>
      </trkpt>
      <trkpt lat="45.61116" lon="4.48427">
        <ele>619.530334</ele>
        <time>2019-07-11T18:48:50Z</time>
      </trkpt>
      <trkpt lat="45.61123" lon="4.48478">
        <ele>623.536072</ele>
        <time>2019-07-11T18:49:11Z</time>
      </trkpt>
      <trkpt lat="45.61148" lon="4.48549">
        <ele>626.347473</ele>
        <time>2019-07-11T18:49:31Z</time>
      </trkpt>
      <trkpt lat="45.61153" lon="4.48579">
        <ele>626.902527</ele>
        <time>2019-07-11T18:49:46Z</time>
      </trkpt>
      <trkpt lat="45.61149" lon="4.48631">
        <ele>625.880371</ele>
        <time>2019-07-11T18:49:55Z</time>
      </trkpt>
      <trkpt lat="45.61132" lon="4.48686">
        <ele>621.483643</ele>
        <time>2019-07-11T18:50:04Z</time>
      </trkpt>
      <trkpt lat="45.61107" lon="4.48708">
        <ele>618.765015</ele>
        <time>2019-07-11T18:50:09Z</time>
      </trkpt>
      <trkpt lat="45.61093" lon="4.48729">
        <ele>617.074402</ele>
        <time>2019-07-11T18:50:26Z</time>
      </trkpt>
      <trkpt lat="45.61083" lon="4.48774">
        <ele>612.852295</ele>
        <time>2019-07-11T18:50:39Z</time>
      </trkpt>
      <trkpt lat="45.61088" lon="4.4891">
        <ele>604.986267</ele>
        <time>2019-07-11T18:50:42Z</time>
      </trkpt>
      <trkpt lat="45.61081" lon="4.49001">
        <ele>601.613281</ele>
        <time>2019-07-11T18:50:58Z</time>
      </trkpt>
      <trkpt lat="45.61094" lon="4.4905">
        <ele>598.612366</ele>
        <time>2019-07-11T18:51:15Z</time>
      </trkpt>
      <trkpt lat="45.61102" lon="4.49096">
        <ele>599.68335</ele>
        <time>2019-07-11T18:51:37Z</time>
      </trkpt>
      <trkpt lat="45.61097" lon="4.49134">
        <ele>600.361328</ele>
        <time>2019-07-11T18:51:40Z</time>
      </trkpt>
      <trkpt lat="45.61084" lon="4.49169">
        <ele>602.146667</ele>
        <time>2019-07-11T18:51:53Z</time>
      </trkpt>
      <trkpt lat="45.61087" lon="4.492">
        <ele>601.14502</ele>
        <time>2019-07-11T18:52:01Z</time>
      </trkpt>
      <trkpt lat="45.61098" lon="4.49225">
        <ele>600.019592</ele>
        <time>2019-07-11T18:52:07Z</time>
      </trkpt>
      <trkpt lat="45.61114" lon="4.49235">
        <ele>602.809998</ele>
        <time>2019-07-11T18:52:24Z</time>
      </trkpt>
      <trkpt lat="45.61115" lon="4.49256">
        <ele>606.202515</ele>
        <time>2019-07-11T18:52:34Z</time>
      </trkpt>
      <trkpt lat="45.61102" lon="4.49285">
        <ele>609.692505</ele>
        <time>2019-07-11T18:52:39Z</time>
      </trkpt>
      <trkpt lat="45.61089" lon="4.4933">
        <ele>616.78595</ele>
        <time>2019-07-11T18:52:46Z</time>
      </trkpt>
      <trkpt lat="45.61091" lon="4.49388">
        <ele>628.424988</ele>
        <time>2019-07-11T18:53:03Z</time>
      </trkpt>
      <trkpt lat="45.61099" lon="4.49462">
        <ele>643.621399</ele>
        <time>2019-07-11T18:53:31Z</time>
      </trkpt>
      <trkpt lat="45.61119" lon="4.49584">
        <ele>660.065613</ele>
        <time>2019-07-11T18:53:59Z</time>
      </trkpt>
      <trkpt lat="45.61143" lon="4.49702">
        <ele>668.90802</ele>
        <time>2019-07-11T18:54:07Z</time>
      </trkpt>
      <trkpt lat="45.61154" lon="4.49794">
        <ele>674.326721</ele>
        <time>2019-07-11T18:54:27Z</time>
      </trkpt>
      <trkpt lat="45.61158" lon="4.49846">
        <ele>677.725708</ele>
        <time>2019-07-11T18:54:33Z</time>
      </trkpt>
      <trkpt lat="45.61155" lon="4.49901">
        <ele>682.414978</ele>
        <time>2019-07-11T18:54:36Z</time>
      </trkpt>
      <trkpt lat="45.61135" lon="4.49882">
        <ele>681.165039</ele>
        <time>2019-07-11T18:54:54Z</time>
      </trkpt>
      <trkpt lat="45.61071" lon="4.49837">
        <ele>677.767517</ele>
        <time>2019-07-11T18:55:15Z</time>
      </trkpt>
      <trkpt lat="45.61016" lon="4.49813">
        <ele>675.287476</ele>
        <time>2019-07-11T18:55:37Z</time>
      </trkpt>
      <trkpt lat="45.61008" lon="4.49801">
        <ele>674.559998</ele>
        <time>2019-07-11T18:55:41Z</time>
      </trkpt>
      <trkpt lat="45.60952" lon="4.49746">
        <ele>669.89502</ele>
        <time>2019-07-11T18:55:47Z</time>
      </trkpt>
      <trkpt lat="45.60885" lon="4.49702">
        <ele>658.297485</ele>
        <time>2019-07-11T18:55:58Z</time>
      </trkpt>
      <trkpt lat="45.60816" lon="4.49613">
        <ele>638.419983</ele>
        <time>2019-07-11T18:56:09Z</time>
      </trkpt>
      <trkpt lat="45.60803" lon="4.49605">
        <ele>635.08252</ele>
        <time>2019-07-11T18:56:20Z</time>
      </trkpt>
      <trkpt lat="45.60748" lon="4.496">
        <ele>629.307495</ele>
        <time>2019-07-11T18:56:33Z</time>
      </trkpt>
      <trkpt lat="45.60734" lon="4.49552">
        <ele>630.100281</ele>
        <time>2019-07-11T18:56:46Z</time>
      </trkpt>
      <trkpt lat="45.60713" lon="4.49542">
        <ele>635.642944</ele>
        <time>2019-07-11T18:57:05Z</time>
      </trkpt>
      <trkpt lat="45.60641" lon="4.49565">
        <ele>654.495728</ele>
        <time>2019-07-11T18:57:12Z</time>
      </trkpt>
      <trkpt lat="45.60604" lon="4.49596">
        <ele>659.849304</ele>
        <time>2019-07-11T18:57:22Z</time>
      </trkpt>
      <trkpt lat="45.60581" lon="4.49594">
        <ele>664.264099</ele>
        <time>2019-07-11T18:57:33Z</time>
      </trkpt>
      <trkpt lat="45.60552" lon="4.49581">
        <ele>669.730591</ele>
        <time>2019-07-11T18:57:44Z</time>
      </trkpt>
      <trkpt lat="45.60498" lon="4.49513">
        <ele>684.964539</ele>
        <time>2019-07-11T18:57:50Z</time>
      </trkpt>
      <trkpt lat="45.60387" lon="4.49452">
        <ele>706.873657</ele>
        <time>2019-07-11T18:58:07Z</time>
      </trkpt>
      <trkpt lat="45.60279" lon="4.49372">
        <ele>720.381592</ele>
        <time>2019-07-11T18:58:10Z</time>
      </trkpt>
      <trkpt lat="45.60249" lon="4.49347">
        <ele>723.535645</ele>
        <time>2019-07-11T18:58:25Z</time>
      </trkpt>
      <trkpt lat="45.60172" lon="4.49298">
        <ele>733.002869</ele>
        <time>2019-07-11T18:58:32Z</time>
      </trkpt>
      <trkpt lat="45.60151" lon="4.49277">
        <ele>736.575745</ele>
        <time>2019-07-11T18:58:39Z</time>
      </trkpt>
      <trkpt lat="45.60142" lon="4.49264">
        <ele>738.699524</ele>
        <time>2019-07-11T18:58:45Z</time>
      </trkpt>
      <trkpt lat="45.60081" lon="4.49195">
        <ele>751.902222</ele>
        <time>2019-07-11T18:58:57Z</time>
      </trkpt>
      <trkpt lat="45.60005" lon="4.49129">
        <ele>768.066284</ele>
        <time>2019-07-11T18:59:05Z</time>
      </trkpt>
      <trkpt lat="45.59922" lon="4.49066">
        <ele>778.070007</ele>
        <time>2019-07-11T18:59:11Z</time>
      </trkpt>
      <trkpt lat="45.59907" lon="4.4906">
        <ele>779.755005</ele>
        <time>2019-07-11T18:59:18Z</time>
      </trkpt>
      <trkpt lat="45.59882" lon="4.4904">
        <ele>782.1922</ele>
        <time>2019-07-11T18:59:24Z</time>
      </trkpt>
      <trkpt lat="45.59836" lon="4.49021">
        <ele>787.455811</ele>
        <time>2019-07-11T18:59:40Z</time>
      </trkpt>
      <trkpt lat="45.5979" lon="4.4903">
        <ele>790.487305</ele>
        <time>2019-07-11T18:59:48Z</time>
      </trkpt>
      <trkpt lat="45.59783" lon="4.49097">
        <ele>793.536926</ele>
        <time>2019-07-11T19:00:02Z</time>
      </trkpt>
      <trkpt lat="45.59766" lon="4.49171">
        <ele>799.404968</ele>
        <time>2019-07-11T19:00:07Z</time>
      </trkpt>
      <trkpt lat="45.59736" lon="4.49235">
        <ele>803.420654</ele>
        <time>2019-07-11T19:00:16Z</time>
      </trkpt>
      <trkpt lat="45.59671" lon="4.49312">
        <ele>817.747986</ele>
        <time>2019-07-11T19:00:23Z</time>
      </trkpt>
      <trkpt lat="45.59648" lon="4.49337">
        <ele>822.814575</ele>
        <time>2019-07-11T19:00:32Z</time>
      </trkpt>
      <trkpt lat="45.59618" lon="4.4938">
        <ele>829.287476</ele>
        <time>2019-07-11T19:00:48Z</time>
      </trkpt>
      <trkpt lat="45.5959" lon="4.49436">
        <ele>835.945068</ele>
        <time>2019-07-11T19:01:01Z</time>
      </trkpt>
      <trkpt lat="45.59568" lon="4.49496">
        <ele>838.237</ele>
        <time>2019-07-11T19:01:31Z</time>
      </trkpt>
      <trkpt lat="45.59566" lon="4.49531">
        <ele>837.645691</ele>
        <time>2019-07-11T19:01:40Z</time>
      </trkpt>
      <trkpt lat="45.59565" lon="4.49637">
        <ele>832.599731</ele>
        <time>2019-07-11T19:01:52Z</time>
      </trkpt>
      <trkpt lat="45.59562" lon="4.49653">
        <ele>831.493164</ele>
        <time>2019-07-11T19:01:56Z</time>
      </trkpt>
      <trkpt lat="45.59556" lon="4.49745">
        <ele>825.691162</ele>
        <time>2019-07-11T19:02:04Z</time>
      </trkpt>
      <trkpt lat="45.59551" lon="4.49785">
        <ele>823.153748</ele>
        <time>2019-07-11T19:02:13Z</time>
      </trkpt>
      <trkpt lat="45.5954" lon="4.49824">
        <ele>821.378479</ele>
        <time>2019-07-11T19:02:25Z</time>
      </trkpt>
      <trkpt lat="45.59525" lon="4.49855">
        <ele>821.534241</ele>
        <time>2019-07-11T19:02:52Z</time>
      </trkpt>
      <trkpt lat="45.59472" lon="4.49852">
        <ele>825.379944</ele>
        <time>2019-07-11T19:03:18Z</time>
      </trkpt>
      <trkpt lat="45.59441" lon="4.49854">
        <ele>827.492065</ele>
        <time>2019-07-11T19:03:20Z</time>
      </trkpt>
      <trkpt lat="45.59414" lon="4.49861">
        <ele>829.843445</ele>
        <time>2019-07-11T19:03:26Z</time>
      </trkpt>
      <trkpt lat="45.59387" lon="4.49883">
        <ele>834.287292</ele>
        <time>2019-07-11T19:03:33Z</time>
      </trkpt>
      <trkpt lat="45.59367" lon="4.49907">
        <ele>839.17749</ele>
        <time>2019-07-11T19:04:02Z</time>
      </trkpt>
      <trkpt lat="45.59309" lon="4.49957">
        <ele>849.705566</ele>
        <time>2019-07-11T19:04:15Z</time>
      </trkpt>
      <trkpt lat="45.59283" lon="4.49983">
        <ele>854.200012</ele>
        <time>2019-07-11T19:04:27Z</time>
      </trkpt>
      <trkpt lat="45.59225" lon="4.50005">
        <ele>858.286255</ele>
        <time>2019-07-11T19:04:32Z</time>
      </trkpt>
      <trkpt lat="45.59201" lon="4.50017">
        <ele>860.513733</ele>
        <time>2019-07-11T19:04:41Z</time>
      </trkpt>
      <trkpt lat="45.59164" lon="4.5003">
        <ele>862.98877</ele>
        <time>2019-07-11T19:04:49Z</time>
      </trkpt>
      <trkpt lat="45.59141" lon="4.50051">
        <ele>866.747314</ele>
        <time>2019-07-11T19:05:07Z</time>
      </trkpt>
      <trkpt lat="45.59106" lon="4.50078">
        <ele>871.166199</ele>
        <time>2019-07-11T19:05:17Z</time>
      </trkpt>
      <trkpt lat="45.59052" lon="4.50141">
        <ele>878.430603</ele>
        <time>2019-07-11T19:05:36Z</time>
      </trkpt>
      <trkpt lat="45.59015" lon="4.50201">
        <ele>883.95813</ele>
        <time>2019-07-11T19:05:38Z</time>
      </trkpt>
      <trkpt lat="45.58911" lon="4.50302">
        <ele>891.477478</ele>
        <time>2019-07-11T19:05:46Z</time>
      </trkpt>
      <trkpt lat="45.58882" lon="4.50337">
        <ele>893.533752</ele>
        <time>2019-07-11T19:06:07Z</time>
      </trkpt>
      <trkpt lat="45.58849" lon="4.50399">
        <ele>896.501221</ele>
        <time>2019-07-11T19:06:24Z</time>
      </trkpt>
      <trkpt lat="45.58841" lon="4.50419">
        <ele>897.418762</ele>
        <time>2019-07-11T19:06:44Z</time>
      </trkpt>
      <trkpt lat="45.58819" lon="4.50454">
        <ele>898.164795</ele>
        <time>2019-07-11T19:06:48Z</time>
      </trkpt>
      <trkpt lat="45.58781" lon="4.50474">
        <ele>899.449585</ele>
        <time>2019-07-11T19:06:55Z</time>
      </trkpt>
      <trkpt lat="45.58731" lon="4.50492">
        <ele>901.705017</ele>
        <time>2019-07-11T19:07:06Z</time>
      </trkpt>
      <trkpt lat="45.58617" lon="4.50482">
        <ele>910.539246</ele>
        <time>2019-07-11T19:07:09Z</time>
      </trkpt>
      <trkpt lat="45.58505" lon="4.50505">
        <ele>925.481934</ele>
        <time>2019-07-11T19:07:16Z</time>
      </trkpt>
      <trkpt lat="45.58497" lon="4.50504">
        <ele>926.517212</ele>
        <time>2019-07-11T19:07:30Z</time>
      </trkpt>
      <trkpt lat="45.58477" lon="4.50487">
        <ele>929.050415</ele>
        <time>2019-07-11T19:07:51Z</time>
      </trkpt>
      <trkpt lat="45.58448" lon="4.50477">
        <ele>932.987671</ele>
        <time>2019-07-11T19:08:14Z</time>
      </trkpt>
      <trkpt lat="45.58321" lon="4.50494">
        <ele>937.553162</ele>
        <time>2019-07-11T19:08:25Z</time>
      </trkpt>
      <trkpt lat="45.5827" lon="4.50511">
        <ele>932.35083</ele>
        <time>2019-07-11T19:08:29Z</time>
      </trkpt>
      <trkpt lat="45.58219" lon="4.5052">
        <ele>924.459473</ele>
        <time>2019-07-11T19:08:38Z</time>
      </trkpt>
      <trkpt lat="45.58198" lon="4.50527">
        <ele>919.981567</ele>
        <time>2019-07-11T19:08:46Z</time>
      </trkpt>
      <trkpt lat="45.5816" lon="4.5053">
        <ele>913.200012</ele>
        <time>2019-07-11T19:08:51Z</time>
      </trkpt>
      <trkpt lat="45.58125" lon="4.50528">
        <ele>908.514404</ele>
        <time>2019-07-11T19:08:55Z</time>
      </trkpt>
      <trkpt lat="45.58049" lon="4.50508">
        <ele>901.498474</ele>
        <time>2019-07-11T19:09:02Z</time>
      </trkpt>
      <trkpt lat="45.58007" lon="4.5053">
        <ele>895.496887</ele>
        <time>2019-07-11T19:09:10Z</time>
      </trkpt>
      <trkpt lat="45.57938" lon="4.5059">
        <ele>889.792297</ele>
        <time>2019-07-11T19:09:16Z</time>
      </trkpt>
      <trkpt lat="45.57933" lon="4.506">
        <ele>889.703125</ele>
        <time>2019-07-11T19:09:21Z</time>
      </trkpt>
      <trkpt lat="45.57899" lon="4.50595">
        <ele>888.327515</ele>
        <time>2019-07-11T19:09:28Z</time>
      </trkpt>
      <trkpt lat="45.57818" lon="4.50643">
        <ele>883.974487</ele>
        <time>2019-07-11T19:09:37Z</time>
      </trkpt>
      <trkpt lat="45.57755" lon="4.50694">
        <ele>880.332642</ele>
        <time>2019-07-11T19:09:46Z</time>
      </trkpt>
      <trkpt lat="45.5767" lon="4.50726">
        <ele>882.824951</ele>
        <time>2019-07-11T19:09:55Z</time>
      </trkpt>
      <trkpt lat="45.57652" lon="4.50734">
        <ele>884.100403</ele>
        <time>2019-07-11T19:10:06Z</time>
      </trkpt>
      <trkpt lat="45.57626" lon="4.50751">
        <ele>885.869568</ele>
        <time>2019-07-11T19:10:10Z</time>
      </trkpt>
      <trkpt lat="45.57589" lon="4.50786">
        <ele>888.403076</ele>
        <time>2019-07-11T19:10:15Z</time>
      </trkpt>
      <trkpt lat="45.57577" lon="4.50794">
        <ele>889.17926</ele>
        <time>2019-07-11T19:10:18Z</time>
      </trkpt>
      <trkpt lat="45.57544" lon="4.50802">
        <ele>891.187683</ele>
        <time>2019-07-11T19:10:25Z</time>
      </trkpt>
      <trkpt lat="45.57491" lon="4.50832">
        <ele>893.070068</ele>
        <time>2019-07-11T19:10:43Z</time>
      </trkpt>
      <trkpt lat="45.57405" lon="4.50872">
        <ele>889.723694</ele>
        <time>2019-07-11T19:10:58Z</time>
      </trkpt>
      <trkpt lat="45.57309" lon="4.50904">
        <ele>879.263672</ele>
        <time>2019-07-11T19:11:10Z</time>
      </trkpt>
      <trkpt lat="45.57261" lon="4.50911">
        <ele>876.691223</ele>
        <time>2019-07-11T19:11:26Z</time>
      </trkpt>
      <trkpt lat="45.57247" lon="4.50918">
        <ele>875.326233</ele>
        <time>2019-07-11T19:11:32Z</time>
      </trkpt>
      <trkpt lat="45.57212" lon="4.50941">
        <ele>871.890015</ele>
        <time>2019-07-11T19:11:39Z</time>
      </trkpt>
      <trkpt lat="45.57177" lon="4.50957">
        <ele>869.877869</ele>
        <time>2019-07-11T19:11:45Z</time>
      </trkpt>
      <trkpt lat="45.57157" lon="4.50961">
        <ele>869.521301</ele>
        <time>2019-07-11T19:11:57Z</time>
      </trkpt>
      <trkpt lat="45.5714" lon="4.50973">
        <ele>868.158997</ele>
        <time>2019-07-11T19:12:06Z</time>
      </trkpt>
      <trkpt lat="45.5712" lon="4.50998">
        <ele>865.512939</ele>
        <time>2019-07-11T19:12:12Z</time>
      </trkpt>
      <trkpt lat="45.57098" lon="4.51038">
        <ele>862.533264</ele>
        <time>2019-07-11T19:12:17Z</time>
      </trkpt>
      <trkpt lat="45.57087" lon="4.51071">
        <ele>861.589172</ele>
        <time>2019-07-11T19:12:23Z</time>
      </trkpt>
      <trkpt lat="45.57085" lon="4.51104">
        <ele>861.524475</ele>
        <time>2019-07-11T19:12:31Z</time>
      </trkpt>
      <trkpt lat="45.57091" lon="4.51142">
        <ele>861.5625</ele>
        <time>2019-07-11T19:12:42Z</time>
      </trkpt>
      <trkpt lat="45.57096" lon="4.512">
        <ele>863.057312</ele>
        <time>2019-07-11T19:13:02Z</time>
      </trkpt>
      <trkpt lat="45.57093" lon="4.51253">
        <ele>865.43988</ele>
        <time>2019-07-11T19:13:16Z</time>
      </trkpt>
      <trkpt lat="45.57082" lon="4.51304">
        <ele>866.614685</ele>
        <time>2019-07-11T19:13:26Z</time>
      </trkpt>
      <trkpt lat="45.57057" lon="4.51361">
        <ele>866.965027</ele>
        <time>2019-07-11T19:13:38Z</time>
      </trkpt>
      <trkpt lat="45.57045" lon="4.51384">
        <ele>866.952515</ele>
        <time>2019-07-11T19:13:43Z</time>
      </trkpt>
      <trkpt lat="45.5703" lon="4.51401">
        <ele>867.057495</ele>
        <time>2019-07-11T19:13:51Z</time>
      </trkpt>
      <trkpt lat="45.57019" lon="4.51409">
        <ele>867.275024</ele>
        <time>2019-07-11T19:13:55Z</time>
      </trkpt>
      <trkpt lat="45.56997" lon="4.51439">
        <ele>866.763245</ele>
        <time>2019-07-11T19:14:10Z</time>
      </trkpt>
      <trkpt lat="45.56988" lon="4.51549">
        <ele>863.990906</ele>
        <time>2019-07-11T19:14:17Z</time>
      </trkpt>
      <trkpt lat="45.56981" lon="4.51644">
        <ele>862.71106</ele>
        <time>2019-07-11T19:14:30Z</time>
      </trkpt>
      <trkpt lat="45.5698" lon="4.51714">
        <ele>864.86377</ele>
        <time>2019-07-11T19:14:41Z</time>
      </trkpt>
      <trkpt lat="45.56987" lon="4.51814">
        <ele>871.901978</ele>
        <time>2019-07-11T19:14:45Z</time>
      </trkpt>
      <trkpt lat="45.56998" lon="4.51848">
        <ele>876.687134</ele>
        <time>2019-07-11T19:14:51Z</time>
      </trkpt>
      <trkpt lat="45.57005" lon="4.51887">
        <ele>881.351379</ele>
        <time>2019-07-11T19:14:57Z</time>
      </trkpt>
      <trkpt lat="45.57003" lon="4.51926">
        <ele>884.745056</ele>
        <time>2019-07-11T19:15:18Z</time>
      </trkpt>
      <trkpt lat="45.56985" lon="4.51989">
        <ele>884.8125</ele>
        <time>2019-07-11T19:15:44Z</time>
      </trkpt>
      <trkpt lat="45.56986" lon="4.52045">
        <ele>885.252747</ele>
        <time>2019-07-11T19:15:52Z</time>
      </trkpt>
      <trkpt lat="45.56979" lon="4.52084">
        <ele>882.925781</ele>
        <time>2019-07-11T19:16:04Z</time>
      </trkpt>
      <trkpt lat="45.56981" lon="4.52113">
        <ele>883.003296</ele>
        <time>2019-07-11T19:16:11Z</time>
      </trkpt>
      <trkpt lat="45.56988" lon="4.52151">
        <ele>883.594971</ele>
        <time>2019-07-11T19:16:20Z</time>
      </trkpt>
      <trkpt lat="45.57" lon="4.52193">
        <ele>883.647644</ele>
        <time>2019-07-11T19:16:26Z</time>
      </trkpt>
      <trkpt lat="45.56995" lon="4.52261">
        <ele>881.97998</ele>
        <time>2019-07-11T19:16:29Z</time>
      </trkpt>
      <trkpt lat="45.57021" lon="4.52375">
        <ele>879.327271</ele>
        <time>2019-07-11T19:16:35Z</time>
      </trkpt>
      <trkpt lat="45.57059" lon="4.5244">
        <ele>873.549316</ele>
        <time>2019-07-11T19:16:40Z</time>
      </trkpt>
      <trkpt lat="45.57075" lon="4.52497">
        <ele>871.977905</ele>
        <time>2019-07-11T19:16:44Z</time>
      </trkpt>
      <trkpt lat="45.57116" lon="4.52542">
        <ele>872.114563</ele>
        <time>2019-07-11T19:17:01Z</time>
      </trkpt>
      <trkpt lat="45.57126" lon="4.5257">
        <ele>872.367188</ele>
        <time>2019-07-11T19:17:07Z</time>
      </trkpt>
      <trkpt lat="45.5715" lon="4.52608">
        <ele>872.344116</ele>
        <time>2019-07-11T19:17:25Z</time>
      </trkpt>
      <trkpt lat="45.57161" lon="4.52629">
        <ele>873.001038</ele>
        <time>2019-07-11T19:17:35Z</time>
      </trkpt>
      <trkpt lat="45.57182" lon="4.52715">
        <ele>872.246643</ele>
        <time>2019-07-11T19:18:05Z</time>
      </trkpt>
      <trkpt lat="45.57189" lon="4.52757">
        <ele>870.481323</ele>
        <time>2019-07-11T19:18:22Z</time>
      </trkpt>
      <trkpt lat="45.57214" lon="4.52827">
        <ele>869.904541</ele>
        <time>2019-07-11T19:18:31Z</time>
      </trkpt>
      <trkpt lat="45.57245" lon="4.52873">
        <ele>872.749878</ele>
        <time>2019-07-11T19:18:37Z</time>
      </trkpt>
      <trkpt lat="45.57262" lon="4.52878">
        <ele>874.005981</ele>
        <time>2019-07-11T19:18:43Z</time>
      </trkpt>
      <trkpt lat="45.57273" lon="4.52916">
        <ele>875.139343</ele>
        <time>2019-07-11T19:18:54Z</time>
      </trkpt>
      <trkpt lat="45.57278" lon="4.52949">
        <ele>874.137939</ele>
        <time>2019-07-11T19:19:13Z</time>
      </trkpt>
      <trkpt lat="45.57289" lon="4.53079">
        <ele>870.330017</ele>
        <time>2019-07-11T19:19:42Z</time>
      </trkpt>
      <trkpt lat="45.57286" lon="4.53238">
        <ele>868.30249</ele>
        <time>2019-07-11T19:19:55Z</time>
      </trkpt>
      <trkpt lat="45.57281" lon="4.53283">
        <ele>868.83551</ele>
        <time>2019-07-11T19:20:00Z</time>
      </trkpt>
      <trkpt lat="45.57269" lon="4.53354">
        <ele>869.492859</ele>
        <time>2019-07-11T19:20:04Z</time>
      </trkpt>
      <trkpt lat="45.57273" lon="4.53395">
        <ele>869.504761</ele>
        <time>2019-07-11T19:20:11Z</time>
      </trkpt>
      <trkpt lat="45.57283" lon="4.53449">
        <ele>868.707458</ele>
        <time>2019-07-11T19:20:19Z</time>
      </trkpt>
      <trkpt lat="45.57296" lon="4.5348">
        <ele>868.485718</ele>
        <time>2019-07-11T19:20:30Z</time>
      </trkpt>
      <trkpt lat="45.57305" lon="4.53494">
        <ele>868.346191</ele>
        <time>2019-07-11T19:20:45Z</time>
      </trkpt>
      <trkpt lat="45.57318" lon="4.53529">
        <ele>867.397766</ele>
        <time>2019-07-11T19:20:55Z</time>
      </trkpt>
      <trkpt lat="45.57326" lon="4.53555">
        <ele>866.456238</ele>
        <time>2019-07-11T19:21:04Z</time>
      </trkpt>
      <trkpt lat="45.57326" lon="4.53582">
        <ele>865.777527</ele>
        <time>2019-07-11T19:21:23Z</time>
      </trkpt>
      <trkpt lat="45.57368" lon="4.53669">
        <ele>865.381226</ele>
        <time>2019-07-11T19:21:27Z</time>
      </trkpt>
      <trkpt lat="45.57382" lon="4.53694">
        <ele>865</ele>
        <time>2019-07-11T19:21:32Z</time>
      </trkpt>
      <trkpt lat="45.57441" lon="4.53766">
        <ele>861.621033</ele>
        <time>2019-07-11T19:21:52Z</time>
      </trkpt>
      <trkpt lat="45.5747" lon="4.53809">
        <ele>859.824707</ele>
        <time>2019-07-11T19:21:53Z</time>
      </trkpt>
      <trkpt lat="45.57546" lon="4.53959">
        <ele>852.583435</ele>
        <time>2019-07-11T19:22:04Z</time>
      </trkpt>
      <trkpt lat="45.57578" lon="4.54053">
        <ele>851.722717</ele>
        <time>2019-07-11T19:22:12Z</time>
      </trkpt>
      <trkpt lat="45.57584" lon="4.54106">
        <ele>852.769104</ele>
        <time>2019-07-11T19:22:25Z</time>
      </trkpt>
      <trkpt lat="45.57597" lon="4.5414">
        <ele>852.544861</ele>
        <time>2019-07-11T19:22:29Z</time>
      </trkpt>
      <trkpt lat="45.57614" lon="4.5417">
        <ele>852.375</ele>
        <time>2019-07-11T19:22:40Z</time>
      </trkpt>
      <trkpt lat="45.57651" lon="4.54211">
        <ele>851.143616</ele>
        <time>2019-07-11T19:22:48Z</time>
      </trkpt>
      <trkpt lat="45.57719" lon="4.54272">
        <ele>850.305237</ele>
        <time>2019-07-11T19:22:50Z</time>
      </trkpt>
      <trkpt lat="45.57816" lon="4.54379">
        <ele>845.030884</ele>
        <time>2019-07-11T19:22:55Z</time>
      </trkpt>
      <trkpt lat="45.57857" lon="4.5444">
        <ele>841.17334</ele>
        <time>2019-07-11T19:22:58Z</time>
      </trkpt>
      <trkpt lat="45.57866" lon="4.54463">
        <ele>840.299011</ele>
        <time>2019-07-11T19:23:08Z</time>
      </trkpt>
      <trkpt lat="45.57878" lon="4.54478">
        <ele>838.360657</ele>
        <time>2019-07-11T19:23:13Z</time>
      </trkpt>
      <trkpt lat="45.57894" lon="4.5452">
        <ele>834.898315</ele>
        <time>2019-07-11T19:23:30Z</time>
      </trkpt>
      <trkpt lat="45.57891" lon="4.54566">
        <ele>834.446228</ele>
        <time>2019-07-11T19:23:40Z</time>
      </trkpt>
      <trkpt lat="45.57897" lon="4.54633">
        <ele>832.51947</ele>
        <time>2019-07-11T19:23:52Z</time>
      </trkpt>
      <trkpt lat="45.57897" lon="4.54725">
        <ele>830.701233</ele>
        <time>2019-07-11T19:23:59Z</time>
      </trkpt>
      <trkpt lat="45.57894" lon="4.54788">
        <ele>829.040466</ele>
        <time>2019-07-11T19:24:03Z</time>
      </trkpt>
      <trkpt lat="45.57897" lon="4.54844">
        <ele>826.594971</ele>
        <time>2019-07-11T19:24:06Z</time>
      </trkpt>
      <trkpt lat="45.57891" lon="4.5496">
        <ele>820.989014</ele>
        <time>2019-07-11T19:24:09Z</time>
      </trkpt>
      <trkpt lat="45.57888" lon="4.54984">
        <ele>819.85376</ele>
        <time>2019-07-11T19:24:16Z</time>
      </trkpt>
      <trkpt lat="45.57881" lon="4.55011">
        <ele>818.674622</ele>
        <time>2019-07-11T19:24:19Z</time>
      </trkpt>
      <trkpt lat="45.57854" lon="4.55123">
        <ele>814.134644</ele>
        <time>2019-07-11T19:24:21Z</time>
      </trkpt>
      <trkpt lat="45.57855" lon="4.55135">
        <ele>813.59845</ele>
        <time>2019-07-11T19:24:26Z</time>
      </trkpt>
      <trkpt lat="45.57852" lon="4.55198">
        <ele>811.971252</ele>
        <time>2019-07-11T19:24:32Z</time>
      </trkpt>
      <trkpt lat="45.57845" lon="4.55247">
        <ele>811.732483</ele>
        <time>2019-07-11T19:24:35Z</time>
      </trkpt>
      <trkpt lat="45.57852" lon="4.55323">
        <ele>810.238525</ele>
        <time>2019-07-11T19:24:39Z</time>
      </trkpt>
      <trkpt lat="45.57857" lon="4.55352">
        <ele>809.694824</ele>
        <time>2019-07-11T19:24:45Z</time>
      </trkpt>
      <trkpt lat="45.57875" lon="4.55411">
        <ele>809.07782</ele>
        <time>2019-07-11T19:24:49Z</time>
      </trkpt>
      <trkpt lat="45.57898" lon="4.55448">
        <ele>809.224976</ele>
        <time>2019-07-11T19:24:56Z</time>
      </trkpt>
      <trkpt lat="45.57902" lon="4.55462">
        <ele>809.077881</ele>
        <time>2019-07-11T19:25:01Z</time>
      </trkpt>
      <trkpt lat="45.57905" lon="4.55492">
        <ele>808.502441</ele>
        <time>2019-07-11T19:25:19Z</time>
      </trkpt>
      <trkpt lat="45.57908" lon="4.5551">
        <ele>808.533875</ele>
        <time>2019-07-11T19:25:25Z</time>
      </trkpt>
      <trkpt lat="45.57916" lon="4.5557">
        <ele>804.529053</ele>
        <time>2019-07-11T19:25:31Z</time>
      </trkpt>
      <trkpt lat="45.57922" lon="4.55595">
        <ele>803.843506</ele>
        <time>2019-07-11T19:25:35Z</time>
      </trkpt>
      <trkpt lat="45.57953" lon="4.55691">
        <ele>803.946838</ele>
        <time>2019-07-11T19:25:39Z</time>
      </trkpt>
      <trkpt lat="45.57966" lon="4.55748">
        <ele>803.473877</ele>
        <time>2019-07-11T19:25:50Z</time>
      </trkpt>
      <trkpt lat="45.57984" lon="4.55816">
        <ele>804.409363</ele>
        <time>2019-07-11T19:25:59Z</time>
      </trkpt>
      <trkpt lat="45.57987" lon="4.55862">
        <ele>806.630554</ele>
        <time>2019-07-11T19:26:07Z</time>
      </trkpt>
      <trkpt lat="45.57994" lon="4.55885">
        <ele>809.341187</ele>
        <time>2019-07-11T19:26:12Z</time>
      </trkpt>
      <trkpt lat="45.58003" lon="4.55896">
        <ele>810.259216</ele>
        <time>2019-07-11T19:26:18Z</time>
      </trkpt>
      <trkpt lat="45.58005" lon="4.55913">
        <ele>810.677673</ele>
        <time>2019-07-11T19:26:24Z</time>
      </trkpt>
      <trkpt lat="45.58016" lon="4.55956">
        <ele>811.398438</ele>
        <time>2019-07-11T19:26:33Z</time>
      </trkpt>
      <trkpt lat="45.58015" lon="4.5597">
        <ele>812.059143</ele>
        <time>2019-07-11T19:26:42Z</time>
      </trkpt>
      <trkpt lat="45.58017" lon="4.55981">
        <ele>812.42688</ele>
        <time>2019-07-11T19:26:51Z</time>
      </trkpt>
      <trkpt lat="45.5803" lon="4.56008">
        <ele>813.575745</ele>
        <time>2019-07-11T19:26:58Z</time>
      </trkpt>
      <trkpt lat="45.58038" lon="4.56042">
        <ele>816.077087</ele>
        <time>2019-07-11T19:27:02Z</time>
      </trkpt>
      <trkpt lat="45.58041" lon="4.56062">
        <ele>817.331909</ele>
        <time>2019-07-11T19:27:10Z</time>
      </trkpt>
      <trkpt lat="45.58042" lon="4.56084">
        <ele>818.816345</ele>
        <time>2019-07-11T19:27:13Z</time>
      </trkpt>
      <trkpt lat="45.58038" lon="4.56121">
        <ele>819.98584</ele>
        <time>2019-07-11T19:27:14Z</time>
      </trkpt>
      <trkpt lat="45.58039" lon="4.56146">
        <ele>819.860291</ele>
        <time>2019-07-11T19:27:16Z</time>
      </trkpt>
      <trkpt lat="45.58045" lon="4.56185">
        <ele>819.408752</ele>
        <time>2019-07-11T19:27:19Z</time>
      </trkpt>
      <trkpt lat="45.58055" lon="4.56217">
        <ele>819.792175</ele>
        <time>2019-07-11T19:27:23Z</time>
      </trkpt>
      <trkpt lat="45.58097" lon="4.56305">
        <ele>822.980469</ele>
        <time>2019-07-11T19:27:33Z</time>
      </trkpt>
      <trkpt lat="45.58108" lon="4.5634">
        <ele>824.050659</ele>
        <time>2019-07-11T19:27:38Z</time>
      </trkpt>
      <trkpt lat="45.5812" lon="4.5637">
        <ele>823.734131</ele>
        <time>2019-07-11T19:27:40Z</time>
      </trkpt>
      <trkpt lat="45.58134" lon="4.56387">
        <ele>822.509827</ele>
        <time>2019-07-11T19:27:43Z</time>
      </trkpt>
      <trkpt lat="45.58153" lon="4.56391">
        <ele>821.115662</ele>
        <time>2019-07-11T19:27:46Z</time>
      </trkpt>
      <trkpt lat="45.5818" lon="4.56443">
        <ele>819.659241</ele>
        <time>2019-07-11T19:27:51Z</time>
      </trkpt>
      <trkpt lat="45.58209" lon="4.56484">
        <ele>819.755798</ele>
        <time>2019-07-11T19:27:55Z</time>
      </trkpt>
      <trkpt lat="45.58228" lon="4.56521">
        <ele>814.023254</ele>
        <time>2019-07-11T19:28:00Z</time>
      </trkpt>
      <trkpt lat="45.5824" lon="4.5655">
        <ele>812.150879</ele>
        <time>2019-07-11T19:28:05Z</time>
      </trkpt>
      <trkpt lat="45.58262" lon="4.56564">
        <ele>811.271118</ele>
        <time>2019-07-11T19:28:07Z</time>
      </trkpt>
      <trkpt lat="45.58285" lon="4.56582">
        <ele>809.101685</ele>
        <time>2019-07-11T19:28:13Z</time>
      </trkpt>
      <trkpt lat="45.58303" lon="4.56632">
        <ele>806.498535</ele>
        <time>2019-07-11T19:28:27Z</time>
      </trkpt>
      <trkpt lat="45.58324" lon="4.56678">
        <ele>803.676636</ele>
        <time>2019-07-11T19:28:39Z</time>
      </trkpt>
      <trkpt lat="45.58351" lon="4.56711">
        <ele>801.984497</ele>
        <time>2019-07-11T19:28:55Z</time>
      </trkpt>
      <trkpt lat="45.58368" lon="4.56746">
        <ele>799.960632</ele>
        <time>2019-07-11T19:29:00Z</time>
      </trkpt>
      <trkpt lat="45.5837" lon="4.56775">
        <ele>798.316406</ele>
        <time>2019-07-11T19:29:05Z</time>
      </trkpt>
      <trkpt lat="45.58363" lon="4.56823">
        <ele>794.745117</ele>
        <time>2019-07-11T19:29:16Z</time>
      </trkpt>
      <trkpt lat="45.58364" lon="4.56836">
        <ele>794.08197</ele>
        <time>2019-07-11T19:29:18Z</time>
      </trkpt>
      <trkpt lat="45.58366" lon="4.56845">
        <ele>793.872253</ele>
        <time>2019-07-11T19:29:22Z</time>
      </trkpt>
      <trkpt lat="45.58373" lon="4.56853">
        <ele>794.740784</ele>
        <time>2019-07-11T19:29:30Z</time>
      </trkpt>
      <trkpt lat="45.58384" lon="4.5686">
        <ele>796.520386</ele>
        <time>2019-07-11T19:29:40Z</time>
      </trkpt>
      <trkpt lat="45.58401" lon="4.56867">
        <ele>798</ele>
        <time>2019-07-11T19:29:46Z</time>
      </trkpt>
      <trkpt lat="45.58438" lon="4.569">
        <ele>800.58783</ele>
        <time>2019-07-11T19:29:59Z</time>
      </trkpt>
      <trkpt lat="45.58453" lon="4.56923">
        <ele>801.532471</ele>
        <time>2019-07-11T19:30:11Z</time>
      </trkpt>
      <trkpt lat="45.58459" lon="4.56926">
        <ele>802.277161</ele>
        <time>2019-07-11T19:30:18Z</time>
      </trkpt>
      <trkpt lat="45.58473" lon="4.56927">
        <ele>804.17981</ele>
        <time>2019-07-11T19:30:26Z</time>
      </trkpt>
      <trkpt lat="45.58483" lon="4.5693">
        <ele>805.654358</ele>
        <time>2019-07-11T19:30:31Z</time>
      </trkpt>
      <trkpt lat="45.58499" lon="4.5695">
        <ele>807.663086</ele>
        <time>2019-07-11T19:30:42Z</time>
      </trkpt>
      <trkpt lat="45.58516" lon="4.56961">
        <ele>809.624878</ele>
        <time>2019-07-11T19:30:44Z</time>
      </trkpt>
      <trkpt lat="45.58534" lon="4.5698">
        <ele>811.099304</ele>
        <time>2019-07-11T19:30:46Z</time>
      </trkpt>
      <trkpt lat="45.58555" lon="4.56991">
        <ele>813.944824</ele>
        <time>2019-07-11T19:30:49Z</time>
      </trkpt>
      <trkpt lat="45.58562" lon="4.56995">
        <ele>814.946594</ele>
        <time>2019-07-11T19:30:53Z</time>
      </trkpt>
      <trkpt lat="45.58579" lon="4.57025">
        <ele>816.083252</ele>
        <time>2019-07-11T19:30:57Z</time>
      </trkpt>
      <trkpt lat="45.5861" lon="4.57096">
        <ele>816.847473</ele>
        <time>2019-07-11T19:31:00Z</time>
      </trkpt>
      <trkpt lat="45.58639" lon="4.57153">
        <ele>817.065002</ele>
        <time>2019-07-11T19:31:11Z</time>
      </trkpt>
      <trkpt lat="45.58693" lon="4.5722">
        <ele>818.332764</ele>
        <time>2019-07-11T19:31:23Z</time>
      </trkpt>
      <trkpt lat="45.58708" lon="4.57236">
        <ele>817.353638</ele>
        <time>2019-07-11T19:31:25Z</time>
      </trkpt>
      <trkpt lat="45.58729" lon="4.57248">
        <ele>817.56488</ele>
        <time>2019-07-11T19:31:29Z</time>
      </trkpt>
      <trkpt lat="45.58775" lon="4.57268">
        <ele>811.99707</ele>
        <time>2019-07-11T19:31:35Z</time>
      </trkpt>
      <trkpt lat="45.58783" lon="4.57276">
        <ele>810.563721</ele>
        <time>2019-07-11T19:31:40Z</time>
      </trkpt>
      <trkpt lat="45.58796" lon="4.57274">
        <ele>809.295959</ele>
        <time>2019-07-11T19:31:51Z</time>
      </trkpt>
      <trkpt lat="45.58833" lon="4.57261">
        <ele>805.401672</ele>
        <time>2019-07-11T19:31:56Z</time>
      </trkpt>
      <trkpt lat="45.58874" lon="4.57274">
        <ele>799.509644</ele>
        <time>2019-07-11T19:31:57Z</time>
      </trkpt>
      <trkpt lat="45.58897" lon="4.5727">
        <ele>796.458984</ele>
        <time>2019-07-11T19:32:05Z</time>
      </trkpt>
      <trkpt lat="45.58953" lon="4.57279">
        <ele>788.863892</ele>
        <time>2019-07-11T19:32:11Z</time>
      </trkpt>
      <trkpt lat="45.59002" lon="4.57246">
        <ele>780.953735</ele>
        <time>2019-07-11T19:32:15Z</time>
      </trkpt>
      <trkpt lat="45.59029" lon="4.57234">
        <ele>776.692383</ele>
        <time>2019-07-11T19:32:19Z</time>
      </trkpt>
      <trkpt lat="45.59058" lon="4.57214">
        <ele>771.818604</ele>
        <time>2019-07-11T19:32:21Z</time>
      </trkpt>
      <trkpt lat="45.59079" lon="4.57203">
        <ele>768.502625</ele>
        <time>2019-07-11T19:32:22Z</time>
      </trkpt>
      <trkpt lat="45.59121" lon="4.57166">
        <ele>761.599976</ele>
        <time>2019-07-11T19:32:27Z</time>
      </trkpt>
      <trkpt lat="45.59128" lon="4.57164">
        <ele>760.719971</ele>
        <time>2019-07-11T19:32:37Z</time>
      </trkpt>
      <trkpt lat="45.59137" lon="4.57162">
        <ele>759.619995</ele>
        <time>2019-07-11T19:32:49Z</time>
      </trkpt>
      <trkpt lat="45.59148" lon="4.57167">
        <ele>758.596252</ele>
        <time>2019-07-11T19:33:05Z</time>
      </trkpt>
      <trkpt lat="45.59161" lon="4.57184">
        <ele>757.881226</ele>
        <time>2019-07-11T19:33:26Z</time>
      </trkpt>
      <trkpt lat="45.59172" lon="4.57205">
        <ele>757.578735</ele>
        <time>2019-07-11T19:33:46Z</time>
      </trkpt>
      <trkpt lat="45.59182" lon="4.57208">
        <ele>756.577515</ele>
        <time>2019-07-11T19:33:50Z</time>
      </trkpt>
      <trkpt lat="45.59228" lon="4.57184">
        <ele>750.680969</ele>
        <time>2019-07-11T19:34:07Z</time>
      </trkpt>
      <trkpt lat="45.59275" lon="4.57162">
        <ele>744.952515</ele>
        <time>2019-07-11T19:34:10Z</time>
      </trkpt>
      <trkpt lat="45.59284" lon="4.57163">
        <ele>743.706177</ele>
        <time>2019-07-11T19:34:14Z</time>
      </trkpt>
      <trkpt lat="45.593" lon="4.57155">
        <ele>740.878235</ele>
        <time>2019-07-11T19:34:24Z</time>
      </trkpt>
      <trkpt lat="45.59313" lon="4.57124">
        <ele>737.859436</ele>
        <time>2019-07-11T19:34:27Z</time>
      </trkpt>
      <trkpt lat="45.59321" lon="4.57096">
        <ele>735.747864</ele>
        <time>2019-07-11T19:34:40Z</time>
      </trkpt>
      <trkpt lat="45.59347" lon="4.57035">
        <ele>729.264893</ele>
        <time>2019-07-11T19:34:47Z</time>
      </trkpt>
      <trkpt lat="45.59356" lon="4.57006">
        <ele>727.501404</ele>
        <time>2019-07-11T19:35:01Z</time>
      </trkpt>
      <trkpt lat="45.5936" lon="4.57004">
        <ele>727.144836</ele>
        <time>2019-07-11T19:35:16Z</time>
      </trkpt>
      <trkpt lat="45.59388" lon="4.57032">
        <ele>724.606812</ele>
        <time>2019-07-11T19:35:20Z</time>
      </trkpt>
      <trkpt lat="45.59406" lon="4.57056">
        <ele>721.973572</ele>
        <time>2019-07-11T19:35:36Z</time>
      </trkpt>
      <trkpt lat="45.59412" lon="4.57078">
        <ele>720.751221</ele>
        <time>2019-07-11T19:35:40Z</time>
      </trkpt>
      <trkpt lat="45.59414" lon="4.57103">
        <ele>719.958801</ele>
        <time>2019-07-11T19:35:46Z</time>
      </trkpt>
      <trkpt lat="45.59418" lon="4.57111">
        <ele>719.097534</ele>
        <time>2019-07-11T19:35:59Z</time>
      </trkpt>
      <trkpt lat="45.59425" lon="4.57113">
        <ele>717.811279</ele>
        <time>2019-07-11T19:36:09Z</time>
      </trkpt>
      <trkpt lat="45.59446" lon="4.57107">
        <ele>714.190186</ele>
        <time>2019-07-11T19:36:19Z</time>
      </trkpt>
      <trkpt lat="45.59482" lon="4.57078">
        <ele>708.39502</ele>
        <time>2019-07-11T19:36:21Z</time>
      </trkpt>
      <trkpt lat="45.59533" lon="4.57095">
        <ele>701.724976</ele>
        <time>2019-07-11T19:36:27Z</time>
      </trkpt>
      <trkpt lat="45.59601" lon="4.57104">
        <ele>696.44104</ele>
        <time>2019-07-11T19:36:33Z</time>
      </trkpt>
      <trkpt lat="45.59689" lon="4.571">
        <ele>693.3125</ele>
        <time>2019-07-11T19:36:39Z</time>
      </trkpt>
      <trkpt lat="45.59776" lon="4.57116">
        <ele>692.907532</ele>
        <time>2019-07-11T19:36:45Z</time>
      </trkpt>
      <trkpt lat="45.59792" lon="4.57117">
        <ele>692.984497</ele>
        <time>2019-07-11T19:36:53Z</time>
      </trkpt>
      <trkpt lat="45.5986" lon="4.57079">
        <ele>693.685913</ele>
        <time>2019-07-11T19:36:57Z</time>
      </trkpt>
      <trkpt lat="45.59874" lon="4.57079">
        <ele>693.546387</ele>
        <time>2019-07-11T19:37:11Z</time>
      </trkpt>
      <trkpt lat="45.59889" lon="4.57086">
        <ele>692.389709</ele>
        <time>2019-07-11T19:37:14Z</time>
      </trkpt>
      <trkpt lat="45.59931" lon="4.571">
        <ele>692.324951</ele>
        <time>2019-07-11T19:37:17Z</time>
      </trkpt>
      <trkpt lat="45.59939" lon="4.57111">
        <ele>691.945313</ele>
        <time>2019-07-11T19:37:33Z</time>
      </trkpt>
      <trkpt lat="45.5996" lon="4.57184">
        <ele>687.975525</ele>
        <time>2019-07-11T19:37:44Z</time>
      </trkpt>
      <trkpt lat="45.59967" lon="4.57227">
        <ele>686.915405</ele>
        <time>2019-07-11T19:37:57Z</time>
      </trkpt>
      <trkpt lat="45.59971" lon="4.57312">
        <ele>683.390137</ele>
        <time>2019-07-11T19:38:02Z</time>
      </trkpt>
      <trkpt lat="45.59997" lon="4.57395">
        <ele>688.57312</ele>
        <time>2019-07-11T19:38:20Z</time>
      </trkpt>
      <trkpt lat="45.60003" lon="4.57424">
        <ele>689.25238</ele>
        <time>2019-07-11T19:38:26Z</time>
      </trkpt>
      <trkpt lat="45.60012" lon="4.57519">
        <ele>686.988281</ele>
        <time>2019-07-11T19:38:33Z</time>
      </trkpt>
      <trkpt lat="45.60018" lon="4.57544">
        <ele>686.831848</ele>
        <time>2019-07-11T19:38:37Z</time>
      </trkpt>
      <trkpt lat="45.6003" lon="4.57576">
        <ele>688.190735</ele>
        <time>2019-07-11T19:38:40Z</time>
      </trkpt>
      <trkpt lat="45.60062" lon="4.57641">
        <ele>687.068848</ele>
        <time>2019-07-11T19:38:47Z</time>
      </trkpt>
      <trkpt lat="45.60088" lon="4.57686">
        <ele>685.850769</ele>
        <time>2019-07-11T19:38:56Z</time>
      </trkpt>
      <trkpt lat="45.60102" lon="4.57743">
        <ele>684.172241</ele>
        <time>2019-07-11T19:38:58Z</time>
      </trkpt>
      <trkpt lat="45.60102" lon="4.57756">
        <ele>683.11676</ele>
        <time>2019-07-11T19:39:01Z</time>
      </trkpt>
      <trkpt lat="45.6009" lon="4.57791">
        <ele>679.116455</ele>
        <time>2019-07-11T19:39:09Z</time>
      </trkpt>
      <trkpt lat="45.60072" lon="4.57817">
        <ele>679.323608</ele>
        <time>2019-07-11T19:39:15Z</time>
      </trkpt>
      <trkpt lat="45.60062" lon="4.57852">
        <ele>683.644836</ele>
        <time>2019-07-11T19:39:20Z</time>
      </trkpt>
      <trkpt lat="45.60062" lon="4.57886">
        <ele>688.602783</ele>
        <time>2019-07-11T19:39:27Z</time>
      </trkpt>
      <trkpt lat="45.60064" lon="4.57933">
        <ele>692.298828</ele>
        <time>2019-07-11T19:39:31Z</time>
      </trkpt>
      <trkpt lat="45.60075" lon="4.57958">
        <ele>697.999207</ele>
        <time>2019-07-11T19:40:10Z</time>
      </trkpt>
      <trkpt lat="45.6008" lon="4.58039">
        <ele>699.781006</ele>
        <time>2019-07-11T19:40:29Z</time>
      </trkpt>
      <trkpt lat="45.60079" lon="4.58059">
        <ele>699.580811</ele>
        <time>2019-07-11T19:40:33Z</time>
      </trkpt>
      <trkpt lat="45.60085" lon="4.58072">
        <ele>702.893188</ele>
        <time>2019-07-11T19:40:37Z</time>
      </trkpt>
      <trkpt lat="45.60089" lon="4.58171">
        <ele>707.799988</ele>
        <time>2019-07-11T19:40:40Z</time>
      </trkpt>
      <trkpt lat="45.60102" lon="4.58238">
        <ele>713.580017</ele>
        <time>2019-07-11T19:40:47Z</time>
      </trkpt>
      <trkpt lat="45.60113" lon="4.58312">
        <ele>714.473816</ele>
        <time>2019-07-11T19:40:53Z</time>
      </trkpt>
      <trkpt lat="45.60117" lon="4.58348">
        <ele>713.008484</ele>
        <time>2019-07-11T19:40:58Z</time>
      </trkpt>
      <trkpt lat="45.6014" lon="4.58451">
        <ele>712.15033</ele>
        <time>2019-07-11T19:41:04Z</time>
      </trkpt>
      <trkpt lat="45.6015" lon="4.58486">
        <ele>712.54248</ele>
        <time>2019-07-11T19:41:07Z</time>
      </trkpt>
      <trkpt lat="45.60157" lon="4.58524">
        <ele>708.65332</ele>
        <time>2019-07-11T19:41:13Z</time>
      </trkpt>
      <trkpt lat="45.60173" lon="4.5854">
        <ele>709.379028</ele>
        <time>2019-07-11T19:41:19Z</time>
      </trkpt>
      <trkpt lat="45.60178" lon="4.58552">
        <ele>708.798523</ele>
        <time>2019-07-11T19:41:26Z</time>
      </trkpt>
      <trkpt lat="45.60182" lon="4.58597">
        <ele>704.98053</ele>
        <time>2019-07-11T19:41:39Z</time>
      </trkpt>
      <trkpt lat="45.60184" lon="4.58655">
        <ele>702.804016</ele>
        <time>2019-07-11T19:41:45Z</time>
      </trkpt>
      <trkpt lat="45.60181" lon="4.58665">
        <ele>701.708984</ele>
        <time>2019-07-11T19:41:48Z</time>
      </trkpt>
      <trkpt lat="45.60181" lon="4.58679">
        <ele>701.401245</ele>
        <time>2019-07-11T19:41:59Z</time>
      </trkpt>
      <trkpt lat="45.60178" lon="4.58729">
        <ele>702.8255</ele>
        <time>2019-07-11T19:42:05Z</time>
      </trkpt>
      <trkpt lat="45.60171" lon="4.58764">
        <ele>704.166809</ele>
        <time>2019-07-11T19:42:09Z</time>
      </trkpt>
      <trkpt lat="45.60158" lon="4.58792">
        <ele>705.099731</ele>
        <time>2019-07-11T19:42:20Z</time>
      </trkpt>
      <trkpt lat="45.60132" lon="4.58769">
        <ele>701.852966</ele>
        <time>2019-07-11T19:42:29Z</time>
      </trkpt>
      <trkpt lat="45.60116" lon="4.5876">
        <ele>701.1521</ele>
        <time>2019-07-11T19:42:38Z</time>
      </trkpt>
      <trkpt lat="45.59955" lon="4.58706">
        <ele>705.672485</ele>
        <time>2019-07-11T19:42:42Z</time>
      </trkpt>
      <trkpt lat="45.59883" lon="4.58649">
        <ele>711.147522</ele>
        <time>2019-07-11T19:42:46Z</time>
      </trkpt>
      <trkpt lat="45.59866" lon="4.58639">
        <ele>709.39856</ele>
        <time>2019-07-11T19:42:56Z</time>
      </trkpt>
      <trkpt lat="45.59853" lon="4.58643">
        <ele>708.755005</ele>
        <time>2019-07-11T19:43:05Z</time>
      </trkpt>
      <trkpt lat="45.59843" lon="4.58654">
        <ele>709.64624</ele>
        <time>2019-07-11T19:43:12Z</time>
      </trkpt>
      <trkpt lat="45.59825" lon="4.58694">
        <ele>712.154297</ele>
        <time>2019-07-11T19:43:28Z</time>
      </trkpt>
      <trkpt lat="45.59812" lon="4.58726">
        <ele>711.93573</ele>
        <time>2019-07-11T19:43:35Z</time>
      </trkpt>
      <trkpt lat="45.59804" lon="4.58751">
        <ele>710.992554</ele>
        <time>2019-07-11T19:43:47Z</time>
      </trkpt>
      <trkpt lat="45.59796" lon="4.58786">
        <ele>711.844788</ele>
        <time>2019-07-11T19:43:53Z</time>
      </trkpt>
      <trkpt lat="45.598" lon="4.58803">
        <ele>713.608521</ele>
        <time>2019-07-11T19:44:01Z</time>
      </trkpt>
      <trkpt lat="45.59804" lon="4.58839">
        <ele>714.982971</ele>
        <time>2019-07-11T19:44:07Z</time>
      </trkpt>
      <trkpt lat="45.5982" lon="4.58869">
        <ele>716.723816</ele>
        <time>2019-07-11T19:44:15Z</time>
      </trkpt>
      <trkpt lat="45.59842" lon="4.58895">
        <ele>715.318665</ele>
        <time>2019-07-11T19:44:20Z</time>
      </trkpt>
      <trkpt lat="45.59889" lon="4.58943">
        <ele>712.351379</ele>
        <time>2019-07-11T19:44:26Z</time>
      </trkpt>
      <trkpt lat="45.59912" lon="4.58958">
        <ele>712.954102</ele>
        <time>2019-07-11T19:44:44Z</time>
      </trkpt>
      <trkpt lat="45.59927" lon="4.58955">
        <ele>714.014221</ele>
        <time>2019-07-11T19:45:09Z</time>
      </trkpt>
      <trkpt lat="45.59965" lon="4.58921">
        <ele>717.856262</ele>
        <time>2019-07-11T19:45:17Z</time>
      </trkpt>
      <trkpt lat="45.59974" lon="4.58886">
        <ele>718.597473</ele>
        <time>2019-07-11T19:45:22Z</time>
      </trkpt>
      <trkpt lat="45.5999" lon="4.58886">
        <ele>716.840027</ele>
        <time>2019-07-11T19:45:27Z</time>
      </trkpt>
      <trkpt lat="45.60036" lon="4.58905">
        <ele>712.345642</ele>
        <time>2019-07-11T19:45:32Z</time>
      </trkpt>
      <trkpt lat="45.60075" lon="4.58913">
        <ele>710.619263</ele>
        <time>2019-07-11T19:45:40Z</time>
      </trkpt>
      <trkpt lat="45.60114" lon="4.58924">
        <ele>709.27948</ele>
        <time>2019-07-11T19:45:46Z</time>
      </trkpt>
      <trkpt lat="45.60131" lon="4.58925">
        <ele>708.565491</ele>
        <time>2019-07-11T19:45:50Z</time>
      </trkpt>
      <trkpt lat="45.60133" lon="4.58904">
        <ele>708.760803</ele>
        <time>2019-07-11T19:46:03Z</time>
      </trkpt>
      <trkpt lat="45.60176" lon="4.58907">
        <ele>710.797241</ele>
        <time>2019-07-11T19:46:22Z</time>
      </trkpt>
      <trkpt lat="45.60214" lon="4.58915">
        <ele>715.471497</ele>
        <time>2019-07-11T19:46:26Z</time>
      </trkpt>
      <trkpt lat="45.60241" lon="4.58929">
        <ele>719.640015</ele>
        <time>2019-07-11T19:46:38Z</time>
      </trkpt>
      <trkpt lat="45.60308" lon="4.58951">
        <ele>730.444702</ele>
        <time>2019-07-11T19:46:46Z</time>
      </trkpt>
      <trkpt lat="45.60337" lon="4.58958">
        <ele>734.558167</ele>
        <time>2019-07-11T19:46:52Z</time>
      </trkpt>
      <trkpt lat="45.60391" lon="4.58959">
        <ele>742.304993</ele>
        <time>2019-07-11T19:46:59Z</time>
      </trkpt>
      <trkpt lat="45.60414" lon="4.58944">
        <ele>746.272278</ele>
        <time>2019-07-11T19:47:08Z</time>
      </trkpt>
      <trkpt lat="45.60446" lon="4.58943">
        <ele>750.032471</ele>
        <time>2019-07-11T19:47:18Z</time>
      </trkpt>
      <trkpt lat="45.60475" lon="4.58938">
        <ele>753.306946</ele>
        <time>2019-07-11T19:47:21Z</time>
      </trkpt>
      <trkpt lat="45.60505" lon="4.58929">
        <ele>756.440002</ele>
        <time>2019-07-11T19:47:25Z</time>
      </trkpt>
      <trkpt lat="45.60529" lon="4.58934">
        <ele>758.330017</ele>
        <time>2019-07-11T19:47:55Z</time>
      </trkpt>
      <trkpt lat="45.60556" lon="4.58936">
        <ele>760.474976</ele>
        <time>2019-07-11T19:48:06Z</time>
      </trkpt>
      <trkpt lat="45.60627" lon="4.58974">
        <ele>762.522827</ele>
        <time>2019-07-11T19:48:30Z</time>
      </trkpt>
      <trkpt lat="45.6073" lon="4.58996">
        <ele>760.113342</ele>
        <time>2019-07-11T19:48:41Z</time>
      </trkpt>
      <trkpt lat="45.60768" lon="4.59001">
        <ele>759.978271</ele>
        <time>2019-07-11T19:49:04Z</time>
      </trkpt>
      <trkpt lat="45.60786" lon="4.58991">
        <ele>762.034973</ele>
        <time>2019-07-11T19:49:21Z</time>
      </trkpt>
      <trkpt lat="45.60809" lon="4.58995">
        <ele>763.450439</ele>
        <time>2019-07-11T19:49:35Z</time>
      </trkpt>
      <trkpt lat="45.60828" lon="4.59001">
        <ele>765.121399</ele>
        <time>2019-07-11T19:49:53Z</time>
      </trkpt>
      <trkpt lat="45.60853" lon="4.59032">
        <ele>768.324402</ele>
        <time>2019-07-11T19:50:03Z</time>
      </trkpt>
      <trkpt lat="45.60879" lon="4.59023">
        <ele>770.640015</ele>
        <time>2019-07-11T19:50:16Z</time>
      </trkpt>
      <trkpt lat="45.60897" lon="4.59025">
        <ele>772.27002</ele>
        <time>2019-07-11T19:50:19Z</time>
      </trkpt>
      <trkpt lat="45.60953" lon="4.59041">
        <ele>778.323486</ele>
        <time>2019-07-11T19:50:25Z</time>
      </trkpt>
      <trkpt lat="45.61032" lon="4.59055">
        <ele>787.93457</ele>
        <time>2019-07-11T19:50:33Z</time>
      </trkpt>
      <trkpt lat="45.61046" lon="4.59063">
        <ele>790.000916</ele>
        <time>2019-07-11T19:50:40Z</time>
      </trkpt>
      <trkpt lat="45.6109" lon="4.59104">
        <ele>797.131287</ele>
        <time>2019-07-11T19:50:46Z</time>
      </trkpt>
      <trkpt lat="45.61121" lon="4.59122">
        <ele>802.450012</ele>
        <time>2019-07-11T19:50:53Z</time>
      </trkpt>
      <trkpt lat="45.61146" lon="4.59144">
        <ele>807.054993</ele>
        <time>2019-07-11T19:51:12Z</time>
      </trkpt>
      <trkpt lat="45.61167" lon="4.59169">
        <ele>810.875</ele>
        <time>2019-07-11T19:51:18Z</time>
      </trkpt>
      <trkpt lat="45.61197" lon="4.59208">
        <ele>815.26001</ele>
        <time>2019-07-11T19:51:23Z</time>
      </trkpt>
      <trkpt lat="45.61229" lon="4.59241">
        <ele>819.76001</ele>
        <time>2019-07-11T19:51:31Z</time>
      </trkpt>
      <trkpt lat="45.61245" lon="4.59246">
        <ele>822.4375</ele>
        <time>2019-07-11T19:51:39Z</time>
      </trkpt>
      <trkpt lat="45.61261" lon="4.59246">
        <ele>825.732361</ele>
        <time>2019-07-11T19:51:49Z</time>
      </trkpt>
      <trkpt lat="45.61386" lon="4.59292">
        <ele>838.9375</ele>
        <time>2019-07-11T19:51:52Z</time>
      </trkpt>
      <trkpt lat="45.61433" lon="4.59306">
        <ele>841.450012</ele>
        <time>2019-07-11T19:52:11Z</time>
      </trkpt>
      <trkpt lat="45.61534" lon="4.59317">
        <ele>849.141724</ele>
        <time>2019-07-11T19:52:34Z</time>
      </trkpt>
      <trkpt lat="45.6158" lon="4.59327">
        <ele>851.546509</ele>
        <time>2019-07-11T19:52:45Z</time>
      </trkpt>
      <trkpt lat="45.61678" lon="4.59335">
        <ele>853.438354</ele>
        <time>2019-07-11T19:53:00Z</time>
      </trkpt>
      <trkpt lat="45.61749" lon="4.59353">
        <ele>853.232056</ele>
        <time>2019-07-11T19:53:05Z</time>
      </trkpt>
      <trkpt lat="45.6181" lon="4.59361">
        <ele>854.398621</ele>
        <time>2019-07-11T19:53:10Z</time>
      </trkpt>
      <trkpt lat="45.61885" lon="4.59351">
        <ele>858.766235</ele>
        <time>2019-07-11T19:53:13Z</time>
      </trkpt>
      <trkpt lat="45.61929" lon="4.59353">
        <ele>862.329651</ele>
        <time>2019-07-11T19:53:22Z</time>
      </trkpt>
      <trkpt lat="45.61984" lon="4.59333">
        <ele>863.090027</ele>
        <time>2019-07-11T19:53:28Z</time>
      </trkpt>
      <trkpt lat="45.61995" lon="4.59332">
        <ele>862.780029</ele>
        <time>2019-07-11T19:53:32Z</time>
      </trkpt>
      <trkpt lat="45.62023" lon="4.59342">
        <ele>862.565002</ele>
        <time>2019-07-11T19:53:34Z</time>
      </trkpt>
      <trkpt lat="45.62053" lon="4.59357">
        <ele>860.815002</ele>
        <time>2019-07-11T19:53:42Z</time>
      </trkpt>
      <trkpt lat="45.62078" lon="4.59379">
        <ele>859.379456</ele>
        <time>2019-07-11T19:53:51Z</time>
      </trkpt>
      <trkpt lat="45.62099" lon="4.59401">
        <ele>857.294983</ele>
        <time>2019-07-11T19:54:42Z</time>
      </trkpt>
      <trkpt lat="45.62121" lon="4.59431">
        <ele>855.38501</ele>
        <time>2019-07-11T19:54:53Z</time>
      </trkpt>
      <trkpt lat="45.62185" lon="4.59499">
        <ele>846.300232</ele>
        <time>2019-07-11T19:54:57Z</time>
      </trkpt>
      <trkpt lat="45.62201" lon="4.5953">
        <ele>843.669861</ele>
        <time>2019-07-11T19:54:59Z</time>
      </trkpt>
      <trkpt lat="45.62209" lon="4.59561">
        <ele>841.474121</ele>
        <time>2019-07-11T19:55:05Z</time>
      </trkpt>
      <trkpt lat="45.62218" lon="4.59608">
        <ele>838.597656</ele>
        <time>2019-07-11T19:55:07Z</time>
      </trkpt>
      <trkpt lat="45.62223" lon="4.59654">
        <ele>836.56958</ele>
        <time>2019-07-11T19:55:09Z</time>
      </trkpt>
      <trkpt lat="45.62221" lon="4.59719">
        <ele>835.922791</ele>
        <time>2019-07-11T19:55:13Z</time>
      </trkpt>
      <trkpt lat="45.62227" lon="4.59733">
        <ele>834.540222</ele>
        <time>2019-07-11T19:55:13Z</time>
      </trkpt>
      <trkpt lat="45.62283" lon="4.59819">
        <ele>826.512512</ele>
        <time>2019-07-11T19:55:15Z</time>
      </trkpt>
      <trkpt lat="45.62345" lon="4.59927">
        <ele>822.001282</ele>
        <time>2019-07-11T19:55:18Z</time>
      </trkpt>
      <trkpt lat="45.62382" lon="4.59964">
        <ele>820.199646</ele>
        <time>2019-07-11T19:55:22Z</time>
      </trkpt>
      <trkpt lat="45.62431" lon="4.60024">
        <ele>821.111328</ele>
        <time>2019-07-11T19:55:30Z</time>
      </trkpt>
      <trkpt lat="45.62452" lon="4.60038">
        <ele>821.589233</ele>
        <time>2019-07-11T19:55:36Z</time>
      </trkpt>
      <trkpt lat="45.62473" lon="4.60043">
        <ele>822.054016</ele>
        <time>2019-07-11T19:55:38Z</time>
      </trkpt>
      <trkpt lat="45.62487" lon="4.60042">
        <ele>822.120544</ele>
        <time>2019-07-11T19:55:41Z</time>
      </trkpt>
      <trkpt lat="45.62523" lon="4.60027">
        <ele>821.184998</ele>
        <time>2019-07-11T19:55:44Z</time>
      </trkpt>
      <trkpt lat="45.62545" lon="4.60014">
        <ele>820.419983</ele>
        <time>2019-07-11T19:55:47Z</time>
      </trkpt>
      <trkpt lat="45.62563" lon="4.60011">
        <ele>820.75</ele>
        <time>2019-07-11T19:55:53Z</time>
      </trkpt>
      <trkpt lat="45.62571" lon="4.60005">
        <ele>820.309998</ele>
        <time>2019-07-11T19:56:03Z</time>
      </trkpt>
      <trkpt lat="45.62603" lon="4.59994">
        <ele>820.16803</ele>
        <time>2019-07-11T19:56:17Z</time>
      </trkpt>
      <trkpt lat="45.62642" lon="4.5999">
        <ele>821.007507</ele>
        <time>2019-07-11T19:56:20Z</time>
      </trkpt>
      <trkpt lat="45.62862" lon="4.5999">
        <ele>828.384338</ele>
        <time>2019-07-11T19:56:23Z</time>
      </trkpt>
      <trkpt lat="45.62906" lon="4.59993">
        <ele>829.659729</ele>
        <time>2019-07-11T19:56:29Z</time>
      </trkpt>
      <trkpt lat="45.62926" lon="4.59998">
        <ele>830.708191</ele>
        <time>2019-07-11T19:56:39Z</time>
      </trkpt>
      <trkpt lat="45.62934" lon="4.60003">
        <ele>831.113098</ele>
        <time>2019-07-11T19:56:43Z</time>
      </trkpt>
      <trkpt lat="45.62953" lon="4.60027">
        <ele>831.413025</ele>
        <time>2019-07-11T19:56:46Z</time>
      </trkpt>
      <trkpt lat="45.62955" lon="4.60039">
        <ele>831.161072</ele>
        <time>2019-07-11T19:56:49Z</time>
      </trkpt>
      <trkpt lat="45.62962" lon="4.60039">
        <ele>832.115906</ele>
        <time>2019-07-11T19:56:52Z</time>
      </trkpt>
      <trkpt lat="45.62978" lon="4.60036">
        <ele>834.450928</ele>
        <time>2019-07-11T19:57:39Z</time>
      </trkpt>
      <trkpt lat="45.62981" lon="4.60035">
        <ele>834.925598</ele>
        <time>2019-07-11T19:57:47Z</time>
      </trkpt>
      <trkpt lat="45.62984" lon="4.60029">
        <ele>835.63385</ele>
        <time>2019-07-11T19:57:49Z</time>
      </trkpt>
      <trkpt lat="45.62989" lon="4.60012">
        <ele>837.249756</ele>
        <time>2019-07-11T19:57:53Z</time>
      </trkpt>
      <trkpt lat="45.63" lon="4.59991">
        <ele>839.587524</ele>
        <time>2019-07-11T19:57:56Z</time>
      </trkpt>
      <trkpt lat="45.63014" lon="4.59948">
        <ele>843.82251</ele>
        <time>2019-07-11T19:57:59Z</time>
      </trkpt>
      <trkpt lat="45.63021" lon="4.59911">
        <ele>847.879944</ele>
        <time>2019-07-11T19:58:02Z</time>
      </trkpt>
      <trkpt lat="45.6302" lon="4.59896">
        <ele>848.674316</ele>
        <time>2019-07-11T19:58:05Z</time>
      </trkpt>
      <trkpt lat="45.63028" lon="4.59883">
        <ele>851.155212</ele>
        <time>2019-07-11T19:58:09Z</time>
      </trkpt>
      <trkpt lat="45.63031" lon="4.59866">
        <ele>852.527344</ele>
        <time>2019-07-11T19:58:10Z</time>
      </trkpt>
      <trkpt lat="45.63036" lon="4.5985">
        <ele>854.072449</ele>
        <time>2019-07-11T19:58:13Z</time>
      </trkpt>
      <trkpt lat="45.6305" lon="4.5982">
        <ele>857.149536</ele>
        <time>2019-07-11T19:58:18Z</time>
      </trkpt>
      <trkpt lat="45.6308" lon="4.59775">
        <ele>860.538208</ele>
        <time>2019-07-11T19:58:30Z</time>
      </trkpt>
      <trkpt lat="45.6311" lon="4.59701">
        <ele>862.667908</ele>
        <time>2019-07-11T19:58:37Z</time>
      </trkpt>
      <trkpt lat="45.63119" lon="4.59684">
        <ele>863.215149</ele>
        <time>2019-07-11T19:58:41Z</time>
      </trkpt>
      <trkpt lat="45.63126" lon="4.59668">
        <ele>863.390076</ele>
        <time>2019-07-11T19:58:52Z</time>
      </trkpt>
      <trkpt lat="45.63145" lon="4.59653">
        <ele>863.992188</ele>
        <time>2019-07-11T19:59:01Z</time>
      </trkpt>
      <trkpt lat="45.63186" lon="4.59629">
        <ele>862.514282</ele>
        <time>2019-07-11T19:59:04Z</time>
      </trkpt>
      <trkpt lat="45.63195" lon="4.59609">
        <ele>860.386475</ele>
        <time>2019-07-11T19:59:05Z</time>
      </trkpt>
      <trkpt lat="45.63207" lon="4.59614">
        <ele>860.458069</ele>
        <time>2019-07-11T19:59:10Z</time>
      </trkpt>
      <trkpt lat="45.63221" lon="4.59615">
        <ele>860.096252</ele>
        <time>2019-07-11T19:59:15Z</time>
      </trkpt>
      <trkpt lat="45.63235" lon="4.59613">
        <ele>859.401184</ele>
        <time>2019-07-11T19:59:20Z</time>
      </trkpt>
      <trkpt lat="45.63431" lon="4.59545">
        <ele>847.386047</ele>
        <time>2019-07-11T19:59:25Z</time>
      </trkpt>
      <trkpt lat="45.63461" lon="4.59532">
        <ele>847.539307</ele>
        <time>2019-07-11T19:59:32Z</time>
      </trkpt>
      <trkpt lat="45.63471" lon="4.59524">
        <ele>848.004211</ele>
        <time>2019-07-11T19:59:35Z</time>
      </trkpt>
      <trkpt lat="45.63484" lon="4.59509">
        <ele>848.546082</ele>
        <time>2019-07-11T19:59:38Z</time>
      </trkpt>
      <trkpt lat="45.63491" lon="4.59496">
        <ele>848.694031</ele>
        <time>2019-07-11T19:59:47Z</time>
      </trkpt>
      <trkpt lat="45.63498" lon="4.5948">
        <ele>848.836914</ele>
        <time>2019-07-11T20:00:02Z</time>
      </trkpt>
      <trkpt lat="45.63503" lon="4.59464">
        <ele>848.848877</ele>
        <time>2019-07-11T20:00:08Z</time>
      </trkpt>
      <trkpt lat="45.63506" lon="4.59444">
        <ele>849.249084</ele>
        <time>2019-07-11T20:00:26Z</time>
      </trkpt>
      <trkpt lat="45.63507" lon="4.59421">
        <ele>850.088806</ele>
        <time>2019-07-11T20:00:30Z</time>
      </trkpt>
      <trkpt lat="45.63511" lon="4.59417">
        <ele>851.233582</ele>
        <time>2019-07-11T20:00:36Z</time>
      </trkpt>
      <trkpt lat="45.63517" lon="4.594">
        <ele>853.278198</ele>
        <time>2019-07-11T20:00:42Z</time>
      </trkpt>
      <trkpt lat="45.63531" lon="4.59375">
        <ele>857.975403</ele>
        <time>2019-07-11T20:00:52Z</time>
      </trkpt>
      <trkpt lat="45.63555" lon="4.59311">
        <ele>867.784485</ele>
        <time>2019-07-11T20:01:02Z</time>
      </trkpt>
      <trkpt lat="45.63567" lon="4.59274">
        <ele>871.727783</ele>
        <time>2019-07-11T20:01:19Z</time>
      </trkpt>
      <trkpt lat="45.63578" lon="4.59255">
        <ele>874.06427</ele>
        <time>2019-07-11T20:01:28Z</time>
      </trkpt>
      <trkpt lat="45.63618" lon="4.59214">
        <ele>879.237488</ele>
        <time>2019-07-11T20:01:41Z</time>
      </trkpt>
      <trkpt lat="45.63645" lon="4.59179">
        <ele>882.454407</ele>
        <time>2019-07-11T20:01:48Z</time>
      </trkpt>
      <trkpt lat="45.63656" lon="4.59177">
        <ele>885.056641</ele>
        <time>2019-07-11T20:01:55Z</time>
      </trkpt>
      <trkpt lat="45.63663" lon="4.59183">
        <ele>887.090759</ele>
        <time>2019-07-11T20:02:02Z</time>
      </trkpt>
      <trkpt lat="45.63671" lon="4.59205">
        <ele>890.046936</ele>
        <time>2019-07-11T20:02:16Z</time>
      </trkpt>
      <trkpt lat="45.63685" lon="4.59228">
        <ele>895.031799</ele>
        <time>2019-07-11T20:02:21Z</time>
      </trkpt>
      <trkpt lat="45.63686" lon="4.59263">
        <ele>897.660339</ele>
        <time>2019-07-11T20:02:25Z</time>
      </trkpt>
      <trkpt lat="45.63698" lon="4.59289">
        <ele>902.253113</ele>
        <time>2019-07-11T20:02:31Z</time>
      </trkpt>
      <trkpt lat="45.63716" lon="4.59319">
        <ele>908.591003</ele>
        <time>2019-07-11T20:02:36Z</time>
      </trkpt>
      <trkpt lat="45.63719" lon="4.59339">
        <ele>909.923157</ele>
        <time>2019-07-11T20:02:42Z</time>
      </trkpt>
      <trkpt lat="45.63727" lon="4.59353">
        <ele>911.277771</ele>
        <time>2019-07-11T20:03:09Z</time>
      </trkpt>
      <trkpt lat="45.63757" lon="4.59384">
        <ele>915.924988</ele>
        <time>2019-07-11T20:03:16Z</time>
      </trkpt>
      <trkpt lat="45.63802" lon="4.5945">
        <ele>907.932739</ele>
        <time>2019-07-11T20:03:25Z</time>
      </trkpt>
      <trkpt lat="45.63829" lon="4.59458">
        <ele>907.325684</ele>
        <time>2019-07-11T20:03:26Z</time>
      </trkpt>
      <trkpt lat="45.63903" lon="4.59451">
        <ele>907.554626</ele>
        <time>2019-07-11T20:03:33Z</time>
      </trkpt>
      <trkpt lat="45.63917" lon="4.59431">
        <ele>908.994446</ele>
        <time>2019-07-11T20:03:38Z</time>
      </trkpt>
      <trkpt lat="45.63924" lon="4.59399">
        <ele>910.802673</ele>
        <time>2019-07-11T20:03:42Z</time>
      </trkpt>
      <trkpt lat="45.63952" lon="4.59409">
        <ele>907.575134</ele>
        <time>2019-07-11T20:03:54Z</time>
      </trkpt>
      <trkpt lat="45.63969" lon="4.59358">
        <ele>905.413025</ele>
        <time>2019-07-11T20:04:03Z</time>
      </trkpt>
      <trkpt lat="45.63978" lon="4.59297">
        <ele>901.372559</ele>
        <time>2019-07-11T20:04:12Z</time>
      </trkpt>
      <trkpt lat="45.63953" lon="4.59197">
        <ele>899.336304</ele>
        <time>2019-07-11T20:04:16Z</time>
      </trkpt>
      <trkpt lat="45.63944" lon="4.59147">
        <ele>898.092773</ele>
        <time>2019-07-11T20:04:29Z</time>
      </trkpt>
      <trkpt lat="45.63992" lon="4.591">
        <ele>887.872009</ele>
        <time>2019-07-11T20:04:42Z</time>
      </trkpt>
      <trkpt lat="45.6401" lon="4.59065">
        <ele>882.90802</ele>
        <time>2019-07-11T20:04:49Z</time>
      </trkpt>
      <trkpt lat="45.64028" lon="4.59035">
        <ele>878.926819</ele>
        <time>2019-07-11T20:04:57Z</time>
      </trkpt>
      <trkpt lat="45.64045" lon="4.58994">
        <ele>875.34375</ele>
        <time>2019-07-11T20:05:00Z</time>
      </trkpt>
      <trkpt lat="45.64049" lon="4.5891">
        <ele>872.20105</ele>
        <time>2019-07-11T20:05:03Z</time>
      </trkpt>
      <trkpt lat="45.64046" lon="4.58884">
        <ele>872.182373</ele>
        <time>2019-07-11T20:05:12Z</time>
      </trkpt>
      <trkpt lat="45.64056" lon="4.58862">
        <ele>870.700134</ele>
        <time>2019-07-11T20:05:21Z</time>
      </trkpt>
      <trkpt lat="45.64073" lon="4.58829">
        <ele>867.876343</ele>
        <time>2019-07-11T20:05:26Z</time>
      </trkpt>
      <trkpt lat="45.64082" lon="4.58802">
        <ele>866.753662</ele>
        <time>2019-07-11T20:05:31Z</time>
      </trkpt>
      <trkpt lat="45.64103" lon="4.58814">
        <ele>863.184326</ele>
        <time>2019-07-11T20:05:35Z</time>
      </trkpt>
      <trkpt lat="45.64216" lon="4.58767">
        <ele>849.434998</ele>
        <time>2019-07-11T20:05:42Z</time>
      </trkpt>
      <trkpt lat="45.64241" lon="4.58744">
        <ele>845.75946</ele>
        <time>2019-07-11T20:05:56Z</time>
      </trkpt>
      <trkpt lat="45.6425" lon="4.58694">
        <ele>841.295532</ele>
        <time>2019-07-11T20:05:59Z</time>
      </trkpt>
      <trkpt lat="45.64246" lon="4.58686">
        <ele>840.918457</ele>
        <time>2019-07-11T20:06:01Z</time>
      </trkpt>
      <trkpt lat="45.64221" lon="4.5866">
        <ele>842.406799</ele>
        <time>2019-07-11T20:06:32Z</time>
      </trkpt>
      <trkpt lat="45.6421" lon="4.58636">
        <ele>843.174988</ele>
        <time>2019-07-11T20:07:01Z</time>
      </trkpt>
      <trkpt lat="45.64205" lon="4.58614">
        <ele>843.118774</ele>
        <time>2019-07-11T20:07:10Z</time>
      </trkpt>
      <trkpt lat="45.6421" lon="4.58538">
        <ele>839.674988</ele>
        <time>2019-07-11T20:07:22Z</time>
      </trkpt>
      <trkpt lat="45.6419" lon="4.58495">
        <ele>842.244019</ele>
        <time>2019-07-11T20:07:30Z</time>
      </trkpt>
      <trkpt lat="45.64166" lon="4.5845">
        <ele>846.79834</ele>
        <time>2019-07-11T20:07:38Z</time>
      </trkpt>
      <trkpt lat="45.64158" lon="4.5843">
        <ele>849.490356</ele>
        <time>2019-07-11T20:07:44Z</time>
      </trkpt>
      <trkpt lat="45.64172" lon="4.58354">
        <ele>849.998779</ele>
        <time>2019-07-11T20:07:53Z</time>
      </trkpt>
      <trkpt lat="45.64193" lon="4.58276">
        <ele>850.088074</ele>
        <time>2019-07-11T20:07:57Z</time>
      </trkpt>
      <trkpt lat="45.64195" lon="4.58236">
        <ele>850.507996</ele>
        <time>2019-07-11T20:08:08Z</time>
      </trkpt>
      <trkpt lat="45.64206" lon="4.5819">
        <ele>847.983765</ele>
        <time>2019-07-11T20:08:14Z</time>
      </trkpt>
      <trkpt lat="45.64208" lon="4.58168">
        <ele>847.272522</ele>
        <time>2019-07-11T20:09:03Z</time>
      </trkpt>
      <trkpt lat="45.64208" lon="4.58151">
        <ele>847.089966</ele>
        <time>2019-07-11T20:09:13Z</time>
      </trkpt>
      <trkpt lat="45.64221" lon="4.58102">
        <ele>842.437622</ele>
        <time>2019-07-11T20:09:29Z</time>
      </trkpt>
      <trkpt lat="45.64218" lon="4.58046">
        <ele>840.121826</ele>
        <time>2019-07-11T20:09:43Z</time>
      </trkpt>
      <trkpt lat="45.6423" lon="4.58019">
        <ele>835.723938</ele>
        <time>2019-07-11T20:10:01Z</time>
      </trkpt>
      <trkpt lat="45.64249" lon="4.58014">
        <ele>831.506409</ele>
        <time>2019-07-11T20:10:13Z</time>
      </trkpt>
      <trkpt lat="45.64236" lon="4.57997">
        <ele>832.983582</ele>
        <time>2019-07-11T20:10:42Z</time>
      </trkpt>
      <trkpt lat="45.64261" lon="4.5797">
        <ele>826.748047</ele>
        <time>2019-07-11T20:10:53Z</time>
      </trkpt>
      <trkpt lat="45.64321" lon="4.57964">
        <ele>816.414368</ele>
        <time>2019-07-11T20:11:10Z</time>
      </trkpt>
      <trkpt lat="45.64332" lon="4.57957">
        <ele>814.020569</ele>
        <time>2019-07-11T20:11:28Z</time>
      </trkpt>
      <trkpt lat="45.64333" lon="4.57941">
        <ele>813.141113</ele>
        <time>2019-07-11T20:11:30Z</time>
      </trkpt>
      <trkpt lat="45.6432" lon="4.57753">
        <ele>798.630005</ele>
        <time>2019-07-11T20:12:20Z</time>
      </trkpt>
      <trkpt lat="45.64344" lon="4.5758">
        <ele>786.387207</ele>
        <time>2019-07-11T20:12:25Z</time>
      </trkpt>
      <trkpt lat="45.64332" lon="4.57526">
        <ele>783.493774</ele>
        <time>2019-07-11T20:12:33Z</time>
      </trkpt>
      <trkpt lat="45.64299" lon="4.57472">
        <ele>781.559937</ele>
        <time>2019-07-11T20:12:44Z</time>
      </trkpt>
      <trkpt lat="45.64284" lon="4.57428">
        <ele>777.189331</ele>
        <time>2019-07-11T20:12:48Z</time>
      </trkpt>
      <trkpt lat="45.6432" lon="4.57422">
        <ele>777.509155</ele>
        <time>2019-07-11T20:12:56Z</time>
      </trkpt>
      <trkpt lat="45.64343" lon="4.57413">
        <ele>779.934082</ele>
        <time>2019-07-11T20:13:01Z</time>
      </trkpt>
      <trkpt lat="45.64374" lon="4.57382">
        <ele>785.357178</ele>
        <time>2019-07-11T20:13:06Z</time>
      </trkpt>
      <trkpt lat="45.64391" lon="4.57371">
        <ele>787.852478</ele>
        <time>2019-07-11T20:13:11Z</time>
      </trkpt>
      <trkpt lat="45.64434" lon="4.57384">
        <ele>791.701477</ele>
        <time>2019-07-11T20:13:52Z</time>
      </trkpt>
      <trkpt lat="45.64461" lon="4.57383">
        <ele>793.849365</ele>
        <time>2019-07-11T20:14:11Z</time>
      </trkpt>
      <trkpt lat="45.64648" lon="4.57238">
        <ele>805.723755</ele>
        <time>2019-07-11T20:14:36Z</time>
      </trkpt>
      <trkpt lat="45.64685" lon="4.57215">
        <ele>805.663757</ele>
        <time>2019-07-11T20:14:43Z</time>
      </trkpt>
      <trkpt lat="45.64747" lon="4.57168">
        <ele>805.563721</ele>
        <time>2019-07-11T20:14:44Z</time>
      </trkpt>
      <trkpt lat="45.64797" lon="4.57124">
        <ele>804.637939</ele>
        <time>2019-07-11T20:14:46Z</time>
      </trkpt>
      <trkpt lat="45.64848" lon="4.57042">
        <ele>801.833679</ele>
        <time>2019-07-11T20:14:47Z</time>
      </trkpt>
      <trkpt lat="45.6489" lon="4.56996">
        <ele>800.960938</ele>
        <time>2019-07-11T20:14:48Z</time>
      </trkpt>
      <trkpt lat="45.64963" lon="4.56857">
        <ele>797.455322</ele>
        <time>2019-07-11T20:14:50Z</time>
      </trkpt>
      <trkpt lat="45.64996" lon="4.56805">
        <ele>797.772583</ele>
        <time>2019-07-11T20:15:07Z</time>
      </trkpt>
      <trkpt lat="45.65054" lon="4.56744">
        <ele>796.299988</ele>
        <time>2019-07-11T20:15:14Z</time>
      </trkpt>
      <trkpt lat="45.65113" lon="4.56676">
        <ele>790.024902</ele>
        <time>2019-07-11T20:15:24Z</time>
      </trkpt>
      <trkpt lat="45.65123" lon="4.56667">
        <ele>788.849243</ele>
        <time>2019-07-11T20:15:31Z</time>
      </trkpt>
      <trkpt lat="45.65334" lon="4.5664">
        <ele>780.130005</ele>
        <time>2019-07-11T20:15:46Z</time>
      </trkpt>
      <trkpt lat="45.65354" lon="4.56645">
        <ele>779.289978</ele>
        <time>2019-07-11T20:15:54Z</time>
      </trkpt>
      <trkpt lat="45.65384" lon="4.56674">
        <ele>775.389099</ele>
        <time>2019-07-11T20:16:15Z</time>
      </trkpt>
      <trkpt lat="45.65426" lon="4.56644">
        <ele>772.328735</ele>
        <time>2019-07-11T20:16:25Z</time>
      </trkpt>
      <trkpt lat="45.65441" lon="4.56649">
        <ele>770.945007</ele>
        <time>2019-07-11T20:16:29Z</time>
      </trkpt>
      <trkpt lat="45.65477" lon="4.56657">
        <ele>766.893005</ele>
        <time>2019-07-11T20:16:33Z</time>
      </trkpt>
      <trkpt lat="45.65499" lon="4.56665">
        <ele>763.931274</ele>
        <time>2019-07-11T20:16:45Z</time>
      </trkpt>
      <trkpt lat="45.65518" lon="4.56667">
        <ele>760.683899</ele>
        <time>2019-07-11T20:17:05Z</time>
      </trkpt>
      <trkpt lat="45.6554" lon="4.56655">
        <ele>758.030945</ele>
        <time>2019-07-11T20:17:16Z</time>
      </trkpt>
      <trkpt lat="45.65693" lon="4.5654">
        <ele>735.953186</ele>
        <time>2019-07-11T20:17:33Z</time>
      </trkpt>
      <trkpt lat="45.65768" lon="4.56487">
        <ele>727.85498</ele>
        <time>2019-07-11T20:17:46Z</time>
      </trkpt>
      <trkpt lat="45.65871" lon="4.56456">
        <ele>726.025635</ele>
        <time>2019-07-11T20:18:07Z</time>
      </trkpt>
      <trkpt lat="45.65883" lon="4.56414">
        <ele>725.982178</ele>
        <time>2019-07-11T20:18:17Z</time>
      </trkpt>
      <trkpt lat="45.65888" lon="4.56416">
        <ele>726.203125</ele>
        <time>2019-07-11T20:18:23Z</time>
      </trkpt>
      <trkpt lat="45.65894" lon="4.56413">
        <ele>726.436951</ele>
        <time>2019-07-11T20:18:31Z</time>
      </trkpt>
      <trkpt lat="45.65897" lon="4.56407">
        <ele>726.481262</ele>
        <time>2019-07-11T20:18:40Z</time>
      </trkpt>
      <trkpt lat="45.65897" lon="4.564">
        <ele>726.14502</ele>
        <time>2019-07-11T20:18:47Z</time>
      </trkpt>
      <trkpt lat="45.65903" lon="4.56399">
        <ele>726.35498</ele>
        <time>2019-07-11T20:18:57Z</time>
      </trkpt>
      <trkpt lat="45.65975" lon="4.56399">
        <ele>729.907959</ele>
        <time>2019-07-11T20:19:04Z</time>
      </trkpt>
      <trkpt lat="45.66007" lon="4.56385">
        <ele>730.882263</ele>
        <time>2019-07-11T20:19:11Z</time>
      </trkpt>
      <trkpt lat="45.66046" lon="4.56365">
        <ele>730.643616</ele>
        <time>2019-07-11T20:19:17Z</time>
      </trkpt>
      <trkpt lat="45.66074" lon="4.56348">
        <ele>730.320007</ele>
        <time>2019-07-11T20:19:29Z</time>
      </trkpt>
      <trkpt lat="45.66135" lon="4.56324">
        <ele>728.937256</ele>
        <time>2019-07-11T20:19:33Z</time>
      </trkpt>
      <trkpt lat="45.66167" lon="4.56314">
        <ele>729.951599</ele>
        <time>2019-07-11T20:19:35Z</time>
      </trkpt>
      <trkpt lat="45.66258" lon="4.563">
        <ele>731.659973</ele>
        <time>2019-07-11T20:19:38Z</time>
      </trkpt>
      <trkpt lat="45.66301" lon="4.56287">
        <ele>733.482727</ele>
        <time>2019-07-11T20:19:46Z</time>
      </trkpt>
      <trkpt lat="45.66296" lon="4.56312">
        <ele>732.500793</ele>
        <time>2019-07-11T20:20:06Z</time>
      </trkpt>
      <trkpt lat="45.66297" lon="4.56334">
        <ele>731.635437</ele>
        <time>2019-07-11T20:20:18Z</time>
      </trkpt>
      <trkpt lat="45.66321" lon="4.56397">
        <ele>730.852051</ele>
        <time>2019-07-11T20:20:25Z</time>
      </trkpt>
      <trkpt lat="45.66352" lon="4.56516">
        <ele>729.483765</ele>
        <time>2019-07-11T20:20:30Z</time>
      </trkpt>
      <trkpt lat="45.66378" lon="4.56569">
        <ele>729.633972</ele>
        <time>2019-07-11T20:20:35Z</time>
      </trkpt>
      <trkpt lat="45.66408" lon="4.56662">
        <ele>729.181213</ele>
        <time>2019-07-11T20:20:38Z</time>
      </trkpt>
      <trkpt lat="45.66408" lon="4.56742">
        <ele>729.111206</ele>
        <time>2019-07-11T20:20:42Z</time>
      </trkpt>
      <trkpt lat="45.66422" lon="4.5687">
        <ele>735.310852</ele>
        <time>2019-07-11T20:20:50Z</time>
      </trkpt>
      <trkpt lat="45.66435" lon="4.56931">
        <ele>735.433777</ele>
        <time>2019-07-11T20:20:51Z</time>
      </trkpt>
      <trkpt lat="45.66448" lon="4.56961">
        <ele>733.9375</ele>
        <time>2019-07-11T20:20:56Z</time>
      </trkpt>
      <trkpt lat="45.66475" lon="4.56987">
        <ele>732.830017</ele>
        <time>2019-07-11T20:21:00Z</time>
      </trkpt>
      <trkpt lat="45.66493" lon="4.5704">
        <ele>731.646362</ele>
        <time>2019-07-11T20:21:02Z</time>
      </trkpt>
      <trkpt lat="45.66499" lon="4.57077">
        <ele>731.499756</ele>
        <time>2019-07-11T20:21:07Z</time>
      </trkpt>
      <trkpt lat="45.665" lon="4.57141">
        <ele>730.403015</ele>
        <time>2019-07-11T20:21:13Z</time>
      </trkpt>
      <trkpt lat="45.66506" lon="4.57185">
        <ele>730.450867</ele>
        <time>2019-07-11T20:21:15Z</time>
      </trkpt>
      <trkpt lat="45.66516" lon="4.57225">
        <ele>730.115112</ele>
        <time>2019-07-11T20:21:18Z</time>
      </trkpt>
      <trkpt lat="45.66531" lon="4.57253">
        <ele>728.362244</ele>
        <time>2019-07-11T20:21:23Z</time>
      </trkpt>
      <trkpt lat="45.66567" lon="4.57304">
        <ele>719.4375</ele>
        <time>2019-07-11T20:21:28Z</time>
      </trkpt>
      <trkpt lat="45.66582" lon="4.57315">
        <ele>716.161926</ele>
        <time>2019-07-11T20:21:34Z</time>
      </trkpt>
      <trkpt lat="45.66593" lon="4.57319">
        <ele>714.287476</ele>
        <time>2019-07-11T20:21:37Z</time>
      </trkpt>
      <trkpt lat="45.66605" lon="4.57317">
        <ele>713.490662</ele>
        <time>2019-07-11T20:21:43Z</time>
      </trkpt>
      <trkpt lat="45.66636" lon="4.573">
        <ele>715.924988</ele>
        <time>2019-07-11T20:21:46Z</time>
      </trkpt>
      <trkpt lat="45.66723" lon="4.57305">
        <ele>717.961243</ele>
        <time>2019-07-11T20:21:52Z</time>
      </trkpt>
      <trkpt lat="45.66772" lon="4.57313">
        <ele>716.266052</ele>
        <time>2019-07-11T20:21:56Z</time>
      </trkpt>
      <trkpt lat="45.66798" lon="4.57294">
        <ele>722.090576</ele>
        <time>2019-07-11T20:22:04Z</time>
      </trkpt>
      <trkpt lat="45.66822" lon="4.57293">
        <ele>721.848022</ele>
        <time>2019-07-11T20:22:12Z</time>
      </trkpt>
      <trkpt lat="45.66841" lon="4.57281">
        <ele>724.843018</ele>
        <time>2019-07-11T20:22:24Z</time>
      </trkpt>
      <trkpt lat="45.66844" lon="4.57265">
        <ele>726.359985</ele>
        <time>2019-07-11T20:22:32Z</time>
      </trkpt>
      <trkpt lat="45.66858" lon="4.57245">
        <ele>727.358215</ele>
        <time>2019-07-11T20:22:39Z</time>
      </trkpt>
      <trkpt lat="45.66883" lon="4.57219">
        <ele>726.633728</ele>
        <time>2019-07-11T20:22:45Z</time>
      </trkpt>
      <trkpt lat="45.66884" lon="4.57229">
        <ele>725.96875</ele>
        <time>2019-07-11T20:22:51Z</time>
      </trkpt>
      <trkpt lat="45.66893" lon="4.57252">
        <ele>723.231262</ele>
        <time>2019-07-11T20:23:02Z</time>
      </trkpt>
      <trkpt lat="45.66894" lon="4.57226">
        <ele>724.346252</ele>
        <time>2019-07-11T20:23:05Z</time>
      </trkpt>
      <trkpt lat="45.66902" lon="4.57221">
        <ele>723.19751</ele>
        <time>2019-07-11T20:23:10Z</time>
      </trkpt>
      <trkpt lat="45.66917" lon="4.57199">
        <ele>721.347473</ele>
        <time>2019-07-11T20:23:16Z</time>
      </trkpt>
      <trkpt lat="45.66922" lon="4.5716">
        <ele>721.809998</ele>
        <time>2019-07-11T20:23:23Z</time>
      </trkpt>
      <trkpt lat="45.66929" lon="4.57157">
        <ele>720.596985</ele>
        <time>2019-07-11T20:23:44Z</time>
      </trkpt>
      <trkpt lat="45.6694" lon="4.57147">
        <ele>718.481201</ele>
        <time>2019-07-11T20:23:52Z</time>
      </trkpt>
      <trkpt lat="45.66954" lon="4.57122">
        <ele>716.003784</ele>
        <time>2019-07-11T20:24:21Z</time>
      </trkpt>
      <trkpt lat="45.66975" lon="4.57126">
        <ele>711.003784</ele>
        <time>2019-07-11T20:24:23Z</time>
      </trkpt>
      <trkpt lat="45.66978" lon="4.5709">
        <ele>711.200012</ele>
        <time>2019-07-11T20:24:36Z</time>
      </trkpt>
      <trkpt lat="45.66975" lon="4.57076">
        <ele>712.862488</ele>
        <time>2019-07-11T20:25:00Z</time>
      </trkpt>
      <trkpt lat="45.6698" lon="4.57038">
        <ele>714.19751</ele>
        <time>2019-07-11T20:25:23Z</time>
      </trkpt>
      <trkpt lat="45.66987" lon="4.57021">
        <ele>714.07373</ele>
        <time>2019-07-11T20:25:46Z</time>
      </trkpt>
      <trkpt lat="45.67006" lon="4.56997">
        <ele>712.23999</ele>
        <time>2019-07-11T20:25:56Z</time>
      </trkpt>
      <trkpt lat="45.67015" lon="4.56977">
        <ele>712.372498</ele>
        <time>2019-07-11T20:26:21Z</time>
      </trkpt>
      <trkpt lat="45.67026" lon="4.56927">
        <ele>716.353638</ele>
        <time>2019-07-11T20:26:32Z</time>
      </trkpt>
      <trkpt lat="45.67043" lon="4.5689">
        <ele>718.769348</ele>
        <time>2019-07-11T20:26:40Z</time>
      </trkpt>
      <trkpt lat="45.67084" lon="4.56846">
        <ele>722.018188</ele>
        <time>2019-07-11T20:26:44Z</time>
      </trkpt>
      <trkpt lat="45.67115" lon="4.56819">
        <ele>723.485168</ele>
        <time>2019-07-11T20:26:48Z</time>
      </trkpt>
      <trkpt lat="45.67137" lon="4.56792">
        <ele>724.912781</ele>
        <time>2019-07-11T20:26:53Z</time>
      </trkpt>
      <trkpt lat="45.67152" lon="4.56762">
        <ele>725.847656</ele>
        <time>2019-07-11T20:26:56Z</time>
      </trkpt>
      <trkpt lat="45.67176" lon="4.56748">
        <ele>725.328003</ele>
        <time>2019-07-11T20:27:11Z</time>
      </trkpt>
      <trkpt lat="45.67221" lon="4.56731">
        <ele>723.26001</ele>
        <time>2019-07-11T20:27:25Z</time>
      </trkpt>
      <trkpt lat="45.67234" lon="4.56724">
        <ele>722.708313</ele>
        <time>2019-07-11T20:27:34Z</time>
      </trkpt>
      <trkpt lat="45.67256" lon="4.56721">
        <ele>721.760071</ele>
        <time>2019-07-11T20:27:38Z</time>
      </trkpt>
      <trkpt lat="45.67281" lon="4.56709">
        <ele>720.55249</ele>
        <time>2019-07-11T20:27:50Z</time>
      </trkpt>
      <trkpt lat="45.673" lon="4.56682">
        <ele>720</ele>
        <time>2019-07-11T20:27:57Z</time>
      </trkpt>
      <trkpt lat="45.67358" lon="4.56585">
        <ele>717.450012</ele>
        <time>2019-07-11T20:27:59Z</time>
      </trkpt>
      <trkpt lat="45.67379" lon="4.56546">
        <ele>716.928772</ele>
        <time>2019-07-11T20:28:18Z</time>
      </trkpt>
      <trkpt lat="45.67476" lon="4.56431">
        <ele>715.143738</ele>
        <time>2019-07-11T20:28:25Z</time>
      </trkpt>
      <trkpt lat="45.6747" lon="4.56423">
        <ele>713.849976</ele>
        <time>2019-07-11T20:29:03Z</time>
      </trkpt>
      <trkpt lat="45.67495" lon="4.56349">
        <ele>710.906433</ele>
        <time>2019-07-11T20:29:08Z</time>
      </trkpt>
      <trkpt lat="45.67558" lon="4.56233">
        <ele>702.115356</ele>
        <time>2019-07-11T20:29:13Z</time>
      </trkpt>
      <trkpt lat="45.67612" lon="4.56119">
        <ele>690.109619</ele>
        <time>2019-07-11T20:29:16Z</time>
      </trkpt>
      <trkpt lat="45.67663" lon="4.55994">
        <ele>681.60907</ele>
        <time>2019-07-11T20:29:23Z</time>
      </trkpt>
      <trkpt lat="45.67685" lon="4.55941">
        <ele>681.809387</ele>
        <time>2019-07-11T20:29:25Z</time>
      </trkpt>
      <trkpt lat="45.67729" lon="4.55804">
        <ele>685.925659</ele>
        <time>2019-07-11T20:29:30Z</time>
      </trkpt>
      <trkpt lat="45.67754" lon="4.55745">
        <ele>685.95752</ele>
        <time>2019-07-11T20:29:33Z</time>
      </trkpt>
      <trkpt lat="45.67777" lon="4.55708">
        <ele>685.307495</ele>
        <time>2019-07-11T20:30:00Z</time>
      </trkpt>
      <trkpt lat="45.6779" lon="4.55699">
        <ele>685.46582</ele>
        <time>2019-07-11T20:30:17Z</time>
      </trkpt>
      <trkpt lat="45.67803" lon="4.55684">
        <ele>684.981262</ele>
        <time>2019-07-11T20:30:29Z</time>
      </trkpt>
      <trkpt lat="45.67818" lon="4.55662">
        <ele>683.840027</ele>
        <time>2019-07-11T20:30:39Z</time>
      </trkpt>
      <trkpt lat="45.67831" lon="4.55649">
        <ele>683.012512</ele>
        <time>2019-07-11T20:30:45Z</time>
      </trkpt>
      <trkpt lat="45.6789" lon="4.55626">
        <ele>679.422974</ele>
        <time>2019-07-11T20:30:54Z</time>
      </trkpt>
      <trkpt lat="45.67951" lon="4.55613">
        <ele>672.97998</ele>
        <time>2019-07-11T20:30:59Z</time>
      </trkpt>
      <trkpt lat="45.67989" lon="4.55615">
        <ele>671.132019</ele>
        <time>2019-07-11T20:31:04Z</time>
      </trkpt>
      <trkpt lat="45.68002" lon="4.55601">
        <ele>668.620178</ele>
        <time>2019-07-11T20:31:10Z</time>
      </trkpt>
      <trkpt lat="45.68019" lon="4.55527">
        <ele>668.130005</ele>
        <time>2019-07-11T20:31:13Z</time>
      </trkpt>
      <trkpt lat="45.68041" lon="4.55501">
        <ele>668.968018</ele>
        <time>2019-07-11T20:31:19Z</time>
      </trkpt>
      <trkpt lat="45.68043" lon="4.5549">
        <ele>669.295288</ele>
        <time>2019-07-11T20:31:26Z</time>
      </trkpt>
      <trkpt lat="45.6803" lon="4.55377">
        <ele>674.39978</ele>
        <time>2019-07-11T20:31:43Z</time>
      </trkpt>
      <trkpt lat="45.68034" lon="4.55335">
        <ele>676.821167</ele>
        <time>2019-07-11T20:31:52Z</time>
      </trkpt>
      <trkpt lat="45.68112" lon="4.55128">
        <ele>694.262634</ele>
        <time>2019-07-11T20:31:55Z</time>
      </trkpt>
      <trkpt lat="45.68111" lon="4.55097">
        <ele>696.818909</ele>
        <time>2019-07-11T20:31:58Z</time>
      </trkpt>
      <trkpt lat="45.68102" lon="4.55068">
        <ele>699.494995</ele>
        <time>2019-07-11T20:32:05Z</time>
      </trkpt>
      <trkpt lat="45.68094" lon="4.55051">
        <ele>701.206299</ele>
        <time>2019-07-11T20:32:17Z</time>
      </trkpt>
      <trkpt lat="45.68122" lon="4.5505">
        <ele>702.705017</ele>
        <time>2019-07-11T20:32:28Z</time>
      </trkpt>
      <trkpt lat="45.68132" lon="4.55048">
        <ele>703.450012</ele>
        <time>2019-07-11T20:32:40Z</time>
      </trkpt>
      <trkpt lat="45.68144" lon="4.55029">
        <ele>706.200012</ele>
        <time>2019-07-11T20:32:56Z</time>
      </trkpt>
      <trkpt lat="45.68155" lon="4.5502">
        <ele>707.459534</ele>
        <time>2019-07-11T20:32:59Z</time>
      </trkpt>
      <trkpt lat="45.68273" lon="4.54999">
        <ele>705.597595</ele>
        <time>2019-07-11T20:33:02Z</time>
      </trkpt>
      <trkpt lat="45.68336" lon="4.54956">
        <ele>711.484863</ele>
        <time>2019-07-11T20:33:06Z</time>
      </trkpt>
      <trkpt lat="45.68388" lon="4.54963">
        <ele>716.219421</ele>
        <time>2019-07-11T20:33:10Z</time>
      </trkpt>
      <trkpt lat="45.68431" lon="4.54944">
        <ele>724.628723</ele>
        <time>2019-07-11T20:33:15Z</time>
      </trkpt>
      <trkpt lat="45.68455" lon="4.5495">
        <ele>726.450012</ele>
        <time>2019-07-11T20:33:27Z</time>
      </trkpt>
      <trkpt lat="45.68489" lon="4.54977">
        <ele>727.700256</ele>
        <time>2019-07-11T20:33:45Z</time>
      </trkpt>
      <trkpt lat="45.68509" lon="4.54988">
        <ele>728.898315</ele>
        <time>2019-07-11T20:33:51Z</time>
      </trkpt>
      <trkpt lat="45.68501" lon="4.54963">
        <ele>731.519653</ele>
        <time>2019-07-11T20:34:21Z</time>
      </trkpt>
      <trkpt lat="45.68493" lon="4.54924">
        <ele>736.335083</ele>
        <time>2019-07-11T20:34:27Z</time>
      </trkpt>
      <trkpt lat="45.68487" lon="4.54911">
        <ele>737.514221</ele>
        <time>2019-07-11T20:34:45Z</time>
      </trkpt>
      <trkpt lat="45.68469" lon="4.54882">
        <ele>740.23999</ele>
        <time>2019-07-11T20:35:03Z</time>
      </trkpt>
      <trkpt lat="45.68452" lon="4.54847">
        <ele>744.187439</ele>
        <time>2019-07-11T20:35:06Z</time>
      </trkpt>
      <trkpt lat="45.68405" lon="4.54765">
        <ele>754.188049</ele>
        <time>2019-07-11T20:35:22Z</time>
      </trkpt>
      <trkpt lat="45.68384" lon="4.5472">
        <ele>762.970215</ele>
        <time>2019-07-11T20:35:31Z</time>
      </trkpt>
      <trkpt lat="45.68376" lon="4.5471">
        <ele>764.298157</ele>
        <time>2019-07-11T20:35:32Z</time>
      </trkpt>
      <trkpt lat="45.68363" lon="4.54701">
        <ele>765.197571</ele>
        <time>2019-07-11T20:35:33Z</time>
      </trkpt>
      <trkpt lat="45.68334" lon="4.54687">
        <ele>766.40863</ele>
        <time>2019-07-11T20:35:35Z</time>
      </trkpt>
      <trkpt lat="45.68283" lon="4.54676">
        <ele>771.21936</ele>
        <time>2019-07-11T20:35:43Z</time>
      </trkpt>
      <trkpt lat="45.68236" lon="4.5467">
        <ele>770.235474</ele>
        <time>2019-07-11T20:35:57Z</time>
      </trkpt>
      <trkpt lat="45.68281" lon="4.54642">
        <ele>777.90033</ele>
        <time>2019-07-11T20:36:16Z</time>
      </trkpt>
      <trkpt lat="45.68333" lon="4.54578">
        <ele>788.219482</ele>
        <time>2019-07-11T20:36:40Z</time>
      </trkpt>
      <trkpt lat="45.68332" lon="4.54557">
        <ele>785.847412</ele>
        <time>2019-07-11T20:36:49Z</time>
      </trkpt>
      <trkpt lat="45.68335" lon="4.54543">
        <ele>784.826782</ele>
        <time>2019-07-11T20:36:58Z</time>
      </trkpt>
      <trkpt lat="45.68345" lon="4.54521">
        <ele>784.427368</ele>
        <time>2019-07-11T20:37:19Z</time>
      </trkpt>
      <trkpt lat="45.68358" lon="4.545">
        <ele>783.317505</ele>
        <time>2019-07-11T20:37:21Z</time>
      </trkpt>
      <trkpt lat="45.6837" lon="4.54478">
        <ele>781.412476</ele>
        <time>2019-07-11T20:37:22Z</time>
      </trkpt>
      <trkpt lat="45.68404" lon="4.54425">
        <ele>782.420105</ele>
        <time>2019-07-11T20:37:25Z</time>
      </trkpt>
      <trkpt lat="45.6843" lon="4.54321">
        <ele>784.761414</ele>
        <time>2019-07-11T20:37:39Z</time>
      </trkpt>
      <trkpt lat="45.68434" lon="4.5428">
        <ele>785.208191</ele>
        <time>2019-07-11T20:37:57Z</time>
      </trkpt>
      <trkpt lat="45.68465" lon="4.54105">
        <ele>799.727478</ele>
        <time>2019-07-11T20:38:02Z</time>
      </trkpt>
      <trkpt lat="45.68469" lon="4.54068">
        <ele>803.319885</ele>
        <time>2019-07-11T20:38:06Z</time>
      </trkpt>
      <trkpt lat="45.6847" lon="4.53959">
        <ele>814.368774</ele>
        <time>2019-07-11T20:38:20Z</time>
      </trkpt>
      <trkpt lat="45.68497" lon="4.53854">
        <ele>821.491272</ele>
        <time>2019-07-11T20:38:42Z</time>
      </trkpt>
      <trkpt lat="45.68501" lon="4.53834">
        <ele>821.591431</ele>
        <time>2019-07-11T20:38:45Z</time>
      </trkpt>
      <trkpt lat="45.6851" lon="4.5374">
        <ele>818.83606</ele>
        <time>2019-07-11T20:38:49Z</time>
      </trkpt>
      <trkpt lat="45.68511" lon="4.53682">
        <ele>813.738708</ele>
        <time>2019-07-11T20:38:53Z</time>
      </trkpt>
      <trkpt lat="45.6851" lon="4.53676">
        <ele>813.130798</ele>
        <time>2019-07-11T20:38:55Z</time>
      </trkpt>
      <trkpt lat="45.68507" lon="4.53671">
        <ele>812.417236</ele>
        <time>2019-07-11T20:38:59Z</time>
      </trkpt>
      <trkpt lat="45.68511" lon="4.53663">
        <ele>812.117798</ele>
        <time>2019-07-11T20:39:15Z</time>
      </trkpt>
      <trkpt lat="45.68518" lon="4.53614">
        <ele>808.711487</ele>
        <time>2019-07-11T20:39:26Z</time>
      </trkpt>
      <trkpt lat="45.68534" lon="4.53535">
        <ele>804.473938</ele>
        <time>2019-07-11T20:39:33Z</time>
      </trkpt>
      <trkpt lat="45.68552" lon="4.53421">
        <ele>797.599976</ele>
        <time>2019-07-11T20:39:40Z</time>
      </trkpt>
      <trkpt lat="45.68565" lon="4.53275">
        <ele>794.517517</ele>
        <time>2019-07-11T20:39:59Z</time>
      </trkpt>
      <trkpt lat="45.68574" lon="4.53217">
        <ele>793.217529</ele>
        <time>2019-07-11T20:40:06Z</time>
      </trkpt>
      <trkpt lat="45.68576" lon="4.53164">
        <ele>791.539429</ele>
        <time>2019-07-11T20:40:18Z</time>
      </trkpt>
      <trkpt lat="45.68526" lon="4.53055">
        <ele>786.679993</ele>
        <time>2019-07-11T20:40:24Z</time>
      </trkpt>
      <trkpt lat="45.68521" lon="4.53049">
        <ele>786.27002</ele>
        <time>2019-07-11T20:40:32Z</time>
      </trkpt>
      <trkpt lat="45.68515" lon="4.53046">
        <ele>785.950012</ele>
        <time>2019-07-11T20:40:56Z</time>
      </trkpt>
      <trkpt lat="45.68514" lon="4.53032">
        <ele>785.89502</ele>
        <time>2019-07-11T20:41:09Z</time>
      </trkpt>
      <trkpt lat="45.68479" lon="4.52957">
        <ele>786.813843</ele>
        <time>2019-07-11T20:41:16Z</time>
      </trkpt>
      <trkpt lat="45.68439" lon="4.52862">
        <ele>793.242432</ele>
        <time>2019-07-11T20:41:44Z</time>
      </trkpt>
      <trkpt lat="45.68435" lon="4.52835">
        <ele>794.309937</ele>
        <time>2019-07-11T20:42:02Z</time>
      </trkpt>
      <trkpt lat="45.68435" lon="4.52813">
        <ele>795.137024</ele>
        <time>2019-07-11T20:42:26Z</time>
      </trkpt>
      <trkpt lat="45.68442" lon="4.52727">
        <ele>798.214478</ele>
        <time>2019-07-11T20:42:31Z</time>
      </trkpt>
      <trkpt lat="45.68448" lon="4.52591">
        <ele>802.141235</ele>
        <time>2019-07-11T20:42:38Z</time>
      </trkpt>
      <trkpt lat="45.6845" lon="4.52574">
        <ele>803.127502</ele>
        <time>2019-07-11T20:42:42Z</time>
      </trkpt>
      <trkpt lat="45.68458" lon="4.52553">
        <ele>804.95874</ele>
        <time>2019-07-11T20:43:05Z</time>
      </trkpt>
      <trkpt lat="45.68444" lon="4.52539">
        <ele>804.001282</ele>
        <time>2019-07-11T20:43:39Z</time>
      </trkpt>
      <trkpt lat="45.68439" lon="4.52523">
        <ele>804.528503</ele>
        <time>2019-07-11T20:43:59Z</time>
      </trkpt>
      <trkpt lat="45.68429" lon="4.52507">
        <ele>805.296021</ele>
        <time>2019-07-11T20:44:11Z</time>
      </trkpt>
      <trkpt lat="45.68392" lon="4.52426">
        <ele>812.292908</ele>
        <time>2019-07-11T20:44:14Z</time>
      </trkpt>
      <trkpt lat="45.68369" lon="4.52366">
        <ele>815.577759</ele>
        <time>2019-07-11T20:44:28Z</time>
      </trkpt>
      <trkpt lat="45.68359" lon="4.52324">
        <ele>816.619995</ele>
        <time>2019-07-11T20:47:00Z</time>
      </trkpt>
      <trkpt lat="45.68357" lon="4.52284">
        <ele>818.505005</ele>
        <time>2019-07-11T20:47:01Z</time>
      </trkpt>
      <trkpt lat="45.68369" lon="4.52168">
        <ele>828.150391</ele>
        <time>2019-07-11T20:47:48Z</time>
      </trkpt>
      <trkpt lat="45.68369" lon="4.52122">
        <ele>831.505615</ele>
        <time>2019-07-11T20:47:55Z</time>
      </trkpt>
      <trkpt lat="45.68358" lon="4.52054">
        <ele>835.295349</ele>
        <time>2019-07-11T20:48:54Z</time>
      </trkpt>
      <trkpt lat="45.68356" lon="4.52018">
        <ele>838.060364</ele>
        <time>2019-07-11T20:49:03Z</time>
      </trkpt>
      <trkpt lat="45.68358" lon="4.51969">
        <ele>841.170776</ele>
        <time>2019-07-11T20:49:16Z</time>
      </trkpt>
      <trkpt lat="45.68345" lon="4.51822">
        <ele>844.948792</ele>
        <time>2019-07-11T20:49:27Z</time>
      </trkpt>
      <trkpt lat="45.68342" lon="4.51744">
        <ele>847.155884</ele>
        <time>2019-07-11T20:49:43Z</time>
      </trkpt>
      <trkpt lat="45.68338" lon="4.517">
        <ele>850.038635</ele>
        <time>2019-07-11T20:49:59Z</time>
      </trkpt>
      <trkpt lat="45.68279" lon="4.51548">
        <ele>856.406189</ele>
        <time>2019-07-11T20:50:10Z</time>
      </trkpt>
      <trkpt lat="45.6827" lon="4.51439">
        <ele>858.47052</ele>
        <time>2019-07-11T20:50:23Z</time>
      </trkpt>
      <trkpt lat="45.68238" lon="4.51297">
        <ele>865.255127</ele>
        <time>2019-07-11T20:50:32Z</time>
      </trkpt>
      <trkpt lat="45.68228" lon="4.5127">
        <ele>866.682556</ele>
        <time>2019-07-11T20:50:34Z</time>
      </trkpt>
      <trkpt lat="45.68243" lon="4.51235">
        <ele>867.745544</ele>
        <time>2019-07-11T20:50:37Z</time>
      </trkpt>
      <trkpt lat="45.68246" lon="4.51209">
        <ele>867.871704</ele>
        <time>2019-07-11T20:50:40Z</time>
      </trkpt>
      <trkpt lat="45.68246" lon="4.51073">
        <ele>868.167847</ele>
        <time>2019-07-11T20:50:55Z</time>
      </trkpt>
      <trkpt lat="45.68253" lon="4.50862">
        <ele>870.356628</ele>
        <time>2019-07-11T20:51:00Z</time>
      </trkpt>
      <trkpt lat="45.68244" lon="4.50743">
        <ele>865.331421</ele>
        <time>2019-07-11T20:51:09Z</time>
      </trkpt>
      <trkpt lat="45.68234" lon="4.50667">
        <ele>863.708008</ele>
        <time>2019-07-11T20:51:17Z</time>
      </trkpt>
      <trkpt lat="45.68237" lon="4.50652">
        <ele>862.786621</ele>
        <time>2019-07-11T20:51:26Z</time>
      </trkpt>
      <trkpt lat="45.68261" lon="4.50574">
        <ele>857.552551</ele>
        <time>2019-07-11T20:51:43Z</time>
      </trkpt>
      <trkpt lat="45.68215" lon="4.4964">
        <ele>803.758606</ele>
        <time>2019-07-11T20:51:58Z</time>
      </trkpt>
      <trkpt lat="45.68213" lon="4.4964">
        <ele>804.59906</ele>
        <time>2019-07-11T20:52:02Z</time>
      </trkpt>
      <trkpt lat="45.68173" lon="4.49355">
        <ele>803.616821</ele>
        <time>2019-07-11T20:52:09Z</time>
      </trkpt>
      <trkpt lat="45.68176" lon="4.49317">
        <ele>803.628418</ele>
        <time>2019-07-11T20:52:28Z</time>
      </trkpt>
      <trkpt lat="45.68179" lon="4.48953">
        <ele>799.555786</ele>
        <time>2019-07-11T20:52:31Z</time>
      </trkpt>
      <trkpt lat="45.68179" lon="4.48953">
        <ele>799.555786</ele>
        <time>2019-07-11T20:54:17Z</time>
      </trkpt>
      <trkpt lat="45.68188" lon="4.48946">
        <ele>801.161621</ele>
        <time>2019-07-11T20:54:20Z</time>
      </trkpt>
      <trkpt lat="45.68199" lon="4.48934">
        <ele>803.182983</ele>
        <time>2019-07-11T20:54:28Z</time>
      </trkpt>
      <trkpt lat="45.68201" lon="4.48916">
        <ele>803.47998</ele>
        <time>2019-07-11T20:54:51Z</time>
      </trkpt>
      <trkpt lat="45.68198" lon="4.48825">
        <ele>803.672485</ele>
        <time>2019-07-11T20:55:23Z</time>
      </trkpt>
      <trkpt lat="45.68196" lon="4.48794">
        <ele>804.222534</ele>
        <time>2019-07-11T20:56:12Z</time>
      </trkpt>
      <trkpt lat="45.68187" lon="4.48744">
        <ele>805.309998</ele>
        <time>2019-07-11T20:56:24Z</time>
      </trkpt>
      <trkpt lat="45.68171" lon="4.48701">
        <ele>806.068115</ele>
        <time>2019-07-11T20:56:34Z</time>
      </trkpt>
      <trkpt lat="45.68149" lon="4.48654">
        <ele>806.764893</ele>
        <time>2019-07-11T20:56:47Z</time>
      </trkpt>
      <trkpt lat="45.68102" lon="4.48573">
        <ele>803.16748</ele>
        <time>2019-07-11T20:56:58Z</time>
      </trkpt>
      <trkpt lat="45.68097" lon="4.4848">
        <ele>806.340149</ele>
        <time>2019-07-11T20:57:19Z</time>
      </trkpt>
      <trkpt lat="45.68099" lon="4.48458">
        <ele>806.973511</ele>
        <time>2019-07-11T20:57:25Z</time>
      </trkpt>
      <trkpt lat="45.68111" lon="4.4842">
        <ele>809.252625</ele>
        <time>2019-07-11T20:57:43Z</time>
      </trkpt>
      <trkpt lat="45.68171" lon="4.4834">
        <ele>809.947083</ele>
        <time>2019-07-11T20:57:56Z</time>
      </trkpt>
      <trkpt lat="45.6818" lon="4.48323">
        <ele>809.112488</ele>
        <time>2019-07-11T20:58:14Z</time>
      </trkpt>
      <trkpt lat="45.68226" lon="4.48172">
        <ele>798.743469</ele>
        <time>2019-07-11T20:58:37Z</time>
      </trkpt>
      <trkpt lat="45.68237" lon="4.48113">
        <ele>795.038635</ele>
        <time>2019-07-11T20:58:49Z</time>
      </trkpt>
      <trkpt lat="45.68253" lon="4.47997">
        <ele>789.179993</ele>
        <time>2019-07-11T20:58:59Z</time>
      </trkpt>
      <trkpt lat="45.68257" lon="4.47883">
        <ele>789.125244</ele>
        <time>2019-07-11T20:59:12Z</time>
      </trkpt>
      <trkpt lat="45.68253" lon="4.47819">
        <ele>787.99707</ele>
        <time>2019-07-11T20:59:23Z</time>
      </trkpt>
      <trkpt lat="45.68265" lon="4.4774">
        <ele>785.80481</ele>
        <time>2019-07-11T20:59:37Z</time>
      </trkpt>
      <trkpt lat="45.68265" lon="4.47716">
        <ele>785.189758</ele>
        <time>2019-07-11T21:00:09Z</time>
      </trkpt>
      <trkpt lat="45.68268" lon="4.47699">
        <ele>784.69751</ele>
        <time>2019-07-11T21:00:09Z</time>
      </trkpt>
      <trkpt lat="45.68259" lon="4.47686">
        <ele>784.304993</ele>
        <time>2019-07-11T21:00:49Z</time>
      </trkpt>
      <trkpt lat="45.68241" lon="4.47644">
        <ele>783.017517</ele>
        <time>2019-07-11T21:00:49Z</time>
      </trkpt>
      <trkpt lat="45.68185" lon="4.47522">
        <ele>779.415222</ele>
        <time>2019-07-11T21:01:36Z</time>
      </trkpt>
      <trkpt lat="45.68071" lon="4.47417">
        <ele>777.276489</ele>
        <time>2019-07-11T21:01:36Z</time>
      </trkpt>
      <trkpt lat="45.68076" lon="4.47115">
        <ele>772.330811</ele>
        <time>2019-07-11T21:02:14Z</time>
      </trkpt>
      <trkpt lat="45.68062" lon="4.47049">
        <ele>772.227478</ele>
        <time>2019-07-11T21:02:14Z</time>
      </trkpt>
      <trkpt lat="45.68035" lon="4.46999">
        <ele>775.42749</ele>
        <time>2019-07-11T21:02:50Z</time>
      </trkpt>
      <trkpt lat="45.68016" lon="4.46925">
        <ele>775.068054</ele>
        <time>2019-07-11T21:02:50Z</time>
      </trkpt>
      <trkpt lat="45.6802" lon="4.46856">
        <ele>770.457947</ele>
        <time>2019-07-11T21:03:14Z</time>
      </trkpt>
      <trkpt lat="45.68058" lon="4.46742">
        <ele>756.177368</ele>
        <time>2019-07-11T21:03:17Z</time>
      </trkpt>
      <trkpt lat="45.68057" lon="4.46704">
        <ele>755.496094</ele>
        <time>2019-07-11T21:03:26Z</time>
      </trkpt>
      <trkpt lat="45.68042" lon="4.46597">
        <ele>753.036865</ele>
        <time>2019-07-11T21:03:33Z</time>
      </trkpt>
      <trkpt lat="45.68027" lon="4.46516">
        <ele>747.738403</ele>
        <time>2019-07-11T21:03:38Z</time>
      </trkpt>
      <trkpt lat="45.6799" lon="4.46421">
        <ele>744.10907</ele>
        <time>2019-07-11T21:03:47Z</time>
      </trkpt>
      <trkpt lat="45.67963" lon="4.46287">
        <ele>733.722778</ele>
        <time>2019-07-11T21:03:51Z</time>
      </trkpt>
      <trkpt lat="45.67965" lon="4.46212">
        <ele>723.958679</ele>
        <time>2019-07-11T21:03:54Z</time>
      </trkpt>
      <trkpt lat="45.67953" lon="4.46155">
        <ele>716.888794</ele>
        <time>2019-07-11T21:04:04Z</time>
      </trkpt>
      <trkpt lat="45.6795" lon="4.46078">
        <ele>704.631226</ele>
        <time>2019-07-11T21:04:12Z</time>
      </trkpt>
      <trkpt lat="45.67941" lon="4.46008">
        <ele>692.226929</ele>
        <time>2019-07-11T21:04:19Z</time>
      </trkpt>
      <trkpt lat="45.67919" lon="4.4593">
        <ele>676.850952</ele>
        <time>2019-07-11T21:04:27Z</time>
      </trkpt>
      <trkpt lat="45.67848" lon="4.45761">
        <ele>657.86853</ele>
        <time>2019-07-11T21:04:35Z</time>
      </trkpt>
      <trkpt lat="45.67848" lon="4.45761">
        <ele>657.86853</ele>
        <time>2019-07-11T21:04:42Z</time>
      </trkpt>
      <trkpt lat="45.67794" lon="4.45526">
        <ele>633.523865</ele>
        <time>2019-07-11T21:04:45Z</time>
      </trkpt>
      <trkpt lat="45.67794" lon="4.45526">
        <ele>633.523865</ele>
        <time>2019-07-11T21:04:50Z</time>
      </trkpt>
      <trkpt lat="45.67833" lon="4.45246">
        <ele>611.731018</ele>
        <time>2019-07-11T21:04:59Z</time>
      </trkpt>
      <trkpt lat="45.67833" lon="4.45246">
        <ele>611.731018</ele>
        <time>2019-07-11T21:05:06Z</time>
      </trkpt>
      <trkpt lat="45.67944" lon="4.45072">
        <ele>615.835938</ele>
        <time>2019-07-11T21:05:11Z</time>
      </trkpt>
      <trkpt lat="45.67944" lon="4.45072">
        <ele>615.835938</ele>
        <time>2019-07-11T21:05:16Z</time>
      </trkpt>
      <trkpt lat="45.68012" lon="4.44878">
        <ele>588.127686</ele>
        <time>2019-07-11T21:05:22Z</time>
      </trkpt>
      <trkpt lat="45.68012" lon="4.44878">
        <ele>588.127686</ele>
        <time>2019-07-11T21:05:35Z</time>
      </trkpt>
      <trkpt lat="45.67908" lon="4.44878">
        <ele>610.712524</ele>
        <time>2019-07-11T21:05:48Z</time>
      </trkpt>
      <trkpt lat="45.67908" lon="4.44859">
        <ele>606.621521</ele>
        <time>2019-07-11T21:05:57Z</time>
      </trkpt>
      <trkpt lat="45.67871" lon="4.44857">
        <ele>611.400024</ele>
        <time>2019-07-11T21:06:05Z</time>
      </trkpt>
      <trkpt lat="45.6784" lon="4.44867">
        <ele>616.917786</ele>
        <time>2019-07-11T21:06:11Z</time>
      </trkpt>
      <trkpt lat="45.67823" lon="4.44882">
        <ele>621.69873</ele>
        <time>2019-07-11T21:06:26Z</time>
      </trkpt>
      <trkpt lat="45.67789" lon="4.44905">
        <ele>630.025146</ele>
        <time>2019-07-11T21:06:36Z</time>
      </trkpt>
      <trkpt lat="45.67771" lon="4.4491">
        <ele>633.677307</ele>
        <time>2019-07-11T21:06:42Z</time>
      </trkpt>
      <trkpt lat="45.67757" lon="4.44908">
        <ele>635.221985</ele>
        <time>2019-07-11T21:06:52Z</time>
      </trkpt>
      <trkpt lat="45.67725" lon="4.44875">
        <ele>636.660461</ele>
        <time>2019-07-11T21:07:01Z</time>
      </trkpt>
      <trkpt lat="45.67692" lon="4.44857">
        <ele>641.376953</ele>
        <time>2019-07-11T21:07:08Z</time>
      </trkpt>
      <trkpt lat="45.6766" lon="4.44857">
        <ele>648.436523</ele>
        <time>2019-07-11T21:07:23Z</time>
      </trkpt>
      <trkpt lat="45.67629" lon="4.44874">
        <ele>652.344238</ele>
        <time>2019-07-11T21:07:27Z</time>
      </trkpt>
      <trkpt lat="45.67597" lon="4.44897">
        <ele>654.390991</ele>
        <time>2019-07-11T21:07:33Z</time>
      </trkpt>
      <trkpt lat="45.67575" lon="4.44926">
        <ele>656.109253</ele>
        <time>2019-07-11T21:07:42Z</time>
      </trkpt>
      <trkpt lat="45.6757" lon="4.44942">
        <ele>658.350586</ele>
        <time>2019-07-11T21:07:47Z</time>
      </trkpt>
      <trkpt lat="45.6757" lon="4.44974">
        <ele>664.886169</ele>
        <time>2019-07-11T21:08:05Z</time>
      </trkpt>
      <trkpt lat="45.67583" lon="4.45024">
        <ele>676.273987</ele>
        <time>2019-07-11T21:08:13Z</time>
      </trkpt>
      <trkpt lat="45.67572" lon="4.45061">
        <ele>681.930298</ele>
        <time>2019-07-11T21:08:28Z</time>
      </trkpt>
      <trkpt lat="45.67551" lon="4.45079">
        <ele>687.000061</ele>
        <time>2019-07-11T21:08:38Z</time>
      </trkpt>
      <trkpt lat="45.6753" lon="4.45079">
        <ele>689.738831</ele>
        <time>2019-07-11T21:08:47Z</time>
      </trkpt>
      <trkpt lat="45.67508" lon="4.45063">
        <ele>691.108337</ele>
        <time>2019-07-11T21:08:52Z</time>
      </trkpt>
      <trkpt lat="45.67457" lon="4.45036">
        <ele>699.675598</ele>
        <time>2019-07-11T21:08:55Z</time>
      </trkpt>
      <trkpt lat="45.67399" lon="4.45033">
        <ele>711.808289</ele>
        <time>2019-07-11T21:08:59Z</time>
      </trkpt>
      <trkpt lat="45.67366" lon="4.45011">
        <ele>714.068726</ele>
        <time>2019-07-11T21:09:04Z</time>
      </trkpt>
      <trkpt lat="45.67332" lon="4.45008">
        <ele>716.809448</ele>
        <time>2019-07-11T21:09:11Z</time>
      </trkpt>
      <trkpt lat="45.67305" lon="4.45019">
        <ele>719.171204</ele>
        <time>2019-07-11T21:09:15Z</time>
      </trkpt>
      <trkpt lat="45.67247" lon="4.45051">
        <ele>719.166931</ele>
        <time>2019-07-11T21:09:22Z</time>
      </trkpt>
      <trkpt lat="45.67223" lon="4.45101">
        <ele>719.612183</ele>
        <time>2019-07-11T21:09:30Z</time>
      </trkpt>
      <trkpt lat="45.67219" lon="4.45141">
        <ele>719.479492</ele>
        <time>2019-07-11T21:09:58Z</time>
      </trkpt>
      <trkpt lat="45.6723" lon="4.45196">
        <ele>722.316162</ele>
        <time>2019-07-11T21:10:00Z</time>
      </trkpt>
      <trkpt lat="45.67235" lon="4.45252">
        <ele>724.075745</ele>
        <time>2019-07-11T21:10:06Z</time>
      </trkpt>
      <trkpt lat="45.6722" lon="4.45287">
        <ele>722.543579</ele>
        <time>2019-07-11T21:10:14Z</time>
      </trkpt>
      <trkpt lat="45.6716" lon="4.4533">
        <ele>716.460693</ele>
        <time>2019-07-11T21:10:23Z</time>
      </trkpt>
      <trkpt lat="45.67143" lon="4.45332">
        <ele>716.883728</ele>
        <time>2019-07-11T21:10:28Z</time>
      </trkpt>
      <trkpt lat="45.67121" lon="4.45313">
        <ele>716.459961</ele>
        <time>2019-07-11T21:10:30Z</time>
      </trkpt>
      <trkpt lat="45.67102" lon="4.45264">
        <ele>713.529358</ele>
        <time>2019-07-11T21:10:54Z</time>
      </trkpt>
      <trkpt lat="45.67084" lon="4.45256">
        <ele>715.252563</ele>
        <time>2019-07-11T21:11:05Z</time>
      </trkpt>
      <trkpt lat="45.67007" lon="4.45261">
        <ele>723.771057</ele>
        <time>2019-07-11T21:11:09Z</time>
      </trkpt>
      <trkpt lat="45.66974" lon="4.45278">
        <ele>725.82251</ele>
        <time>2019-07-11T21:11:13Z</time>
      </trkpt>
      <trkpt lat="45.66918" lon="4.4532">
        <ele>728.303345</ele>
        <time>2019-07-11T21:11:16Z</time>
      </trkpt>
      <trkpt lat="45.66881" lon="4.45357">
        <ele>728.59198</ele>
        <time>2019-07-11T21:11:19Z</time>
      </trkpt>
      <trkpt lat="45.66848" lon="4.45388">
        <ele>727.812317</ele>
        <time>2019-07-11T21:11:22Z</time>
      </trkpt>
      <trkpt lat="45.66838" lon="4.45415">
        <ele>727.954041</ele>
        <time>2019-07-11T21:11:39Z</time>
      </trkpt>
      <trkpt lat="45.66829" lon="4.45417">
        <ele>726.288757</ele>
        <time>2019-07-11T21:11:48Z</time>
      </trkpt>
      <trkpt lat="45.66817" lon="4.4544">
        <ele>724.18573</ele>
        <time>2019-07-11T21:11:50Z</time>
      </trkpt>
      <trkpt lat="45.66809" lon="4.45467">
        <ele>722.273376</ele>
        <time>2019-07-11T21:11:57Z</time>
      </trkpt>
      <trkpt lat="45.66807" lon="4.4551">
        <ele>723.343262</ele>
        <time>2019-07-11T21:12:05Z</time>
      </trkpt>
      <trkpt lat="45.66799" lon="4.45533">
        <ele>721.836304</ele>
        <time>2019-07-11T21:12:18Z</time>
      </trkpt>
      <trkpt lat="45.66781" lon="4.45565">
        <ele>717.919983</ele>
        <time>2019-07-11T21:12:29Z</time>
      </trkpt>
      <trkpt lat="45.66762" lon="4.45605">
        <ele>712.690918</ele>
        <time>2019-07-11T21:12:48Z</time>
      </trkpt>
      <trkpt lat="45.667" lon="4.45751">
        <ele>693.696167</ele>
        <time>2019-07-11T21:13:08Z</time>
      </trkpt>
      <trkpt lat="45.66691" lon="4.45761">
        <ele>692.196899</ele>
      </trkpt>
      <trkpt lat="45.6667" lon="4.45773">
        <ele>688.995789</ele>
      </trkpt>
      <trkpt lat="45.66635" lon="4.45775">
        <ele>686.612183</ele>
      </trkpt>
      <trkpt lat="45.66598" lon="4.45752">
        <ele>687.97876</ele>
      </trkpt>
      <trkpt lat="45.66586" lon="4.45733">
        <ele>689.339966</ele>
      </trkpt>
      <trkpt lat="45.66582" lon="4.4572">
        <ele>689.70874</ele>
      </trkpt>
      <trkpt lat="45.66582" lon="4.4557">
        <ele>693.067444</ele>
      </trkpt>
      <trkpt lat="45.66611" lon="4.45518">
        <ele>689.4245</ele>
      </trkpt>
      <trkpt lat="45.66619" lon="4.45497">
        <ele>688.585693</ele>
      </trkpt>
      <trkpt lat="45.66623" lon="4.45474">
        <ele>688.298096</ele>
      </trkpt>
      <trkpt lat="45.66623" lon="4.45454">
        <ele>687.90094</ele>
      </trkpt>
      <trkpt lat="45.6662" lon="4.45438">
        <ele>687.2995</ele>
      </trkpt>
      <trkpt lat="45.66612" lon="4.45425">
        <ele>687.269409</ele>
      </trkpt>
      <trkpt lat="45.66574" lon="4.45333">
        <ele>680.95752</ele>
      </trkpt>
      <trkpt lat="45.66542" lon="4.45304">
        <ele>677.955017</ele>
      </trkpt>
      <trkpt lat="45.66534" lon="4.45299">
        <ele>677.304993</ele>
      </trkpt>
      <trkpt lat="45.66553" lon="4.45263">
        <ele>676.143005</ele>
      </trkpt>
      <trkpt lat="45.66545" lon="4.4522">
        <ele>675.970459</ele>
      </trkpt>
      <trkpt lat="45.66533" lon="4.45141">
        <ele>675.270325</ele>
      </trkpt>
      <trkpt lat="45.66515" lon="4.45075">
        <ele>671.445435</ele>
      </trkpt>
      <trkpt lat="45.66517" lon="4.44961">
        <ele>667.556885</ele>
      </trkpt>
      <trkpt lat="45.66461" lon="4.44867">
        <ele>661.205872</ele>
      </trkpt>
      <trkpt lat="45.66441" lon="4.44832">
        <ele>660.281677</ele>
      </trkpt>
      <trkpt lat="45.66433" lon="4.44806">
        <ele>660.131836</ele>
      </trkpt>
      <trkpt lat="45.66425" lon="4.44752">
        <ele>658.964172</ele>
      </trkpt>
      <trkpt lat="45.66415" lon="4.44753">
        <ele>657.290527</ele>
      </trkpt>
      <trkpt lat="45.66396" lon="4.44785">
        <ele>657.282471</ele>
      </trkpt>
      <trkpt lat="45.66387" lon="4.44792">
        <ele>658.413757</ele>
      </trkpt>
      <trkpt lat="45.66374" lon="4.44773">
        <ele>658.737488</ele>
      </trkpt>
      <trkpt lat="45.66359" lon="4.44746">
        <ele>658.88269</ele>
      </trkpt>
      <trkpt lat="45.66346" lon="4.44701">
        <ele>658.819763</ele>
      </trkpt>
      <trkpt lat="45.66338" lon="4.44665">
        <ele>658.268921</ele>
      </trkpt>
      <trkpt lat="45.66311" lon="4.44592">
        <ele>657.208313</ele>
      </trkpt>
      <trkpt lat="45.66281" lon="4.44564">
        <ele>657.495422</ele>
      </trkpt>
      <trkpt lat="45.66219" lon="4.44529">
        <ele>658.430664</ele>
      </trkpt>
      <trkpt lat="45.66207" lon="4.44523">
        <ele>659.044373</ele>
      </trkpt>
      <trkpt lat="45.66181" lon="4.44496">
        <ele>659.20166</ele>
      </trkpt>
      <trkpt lat="45.6615" lon="4.4447">
        <ele>660.984009</ele>
      </trkpt>
      <trkpt lat="45.66118" lon="4.44414">
        <ele>661.197327</ele>
      </trkpt>
      <trkpt lat="45.66095" lon="4.44361">
        <ele>659.770752</ele>
      </trkpt>
      <trkpt lat="45.66054" lon="4.4431">
        <ele>657.931519</ele>
      </trkpt>
      <trkpt lat="45.66034" lon="4.44286">
        <ele>657.096802</ele>
      </trkpt>
      <trkpt lat="45.66016" lon="4.44289">
        <ele>659.609253</ele>
      </trkpt>
      <trkpt lat="45.65968" lon="4.44282">
        <ele>664.230408</ele>
      </trkpt>
      <trkpt lat="45.65923" lon="4.44268">
        <ele>667.152527</ele>
      </trkpt>
      <trkpt lat="45.65893" lon="4.44262">
        <ele>670.601685</ele>
      </trkpt>
      <trkpt lat="45.65865" lon="4.4424">
        <ele>671.663635</ele>
      </trkpt>
      <trkpt lat="45.65847" lon="4.44204">
        <ele>669.375</ele>
      </trkpt>
      <trkpt lat="45.65815" lon="4.44181">
        <ele>673.749329</ele>
      </trkpt>
      <trkpt lat="45.65789" lon="4.44174">
        <ele>679.619385</ele>
      </trkpt>
      <trkpt lat="45.65739" lon="4.44176">
        <ele>692.102966</ele>
      </trkpt>
      <trkpt lat="45.65696" lon="4.44178">
        <ele>701.111938</ele>
      </trkpt>
      <trkpt lat="45.6567" lon="4.44156">
        <ele>703.47699</ele>
      </trkpt>
      <trkpt lat="45.65651" lon="4.44108">
        <ele>700.375732</ele>
      </trkpt>
      <trkpt lat="45.65594" lon="4.4407">
        <ele>709.920227</ele>
      </trkpt>
      <trkpt lat="45.65566" lon="4.44035">
        <ele>711.617798</ele>
      </trkpt>
      <trkpt lat="45.65543" lon="4.43998">
        <ele>711.474792</ele>
      </trkpt>
      <trkpt lat="45.6552" lon="4.4397">
        <ele>712.715088</ele>
      </trkpt>
      <trkpt lat="45.65504" lon="4.43912">
        <ele>706.265076</ele>
      </trkpt>
      <trkpt lat="45.65498" lon="4.43888">
        <ele>703.298645</ele>
      </trkpt>
      <trkpt lat="45.65412" lon="4.43826">
        <ele>717.400146</ele>
      </trkpt>
      <trkpt lat="45.65378" lon="4.43807">
        <ele>720.76001</ele>
      </trkpt>
      <trkpt lat="45.65319" lon="4.43754">
        <ele>721.407776</ele>
      </trkpt>
      <trkpt lat="45.65257" lon="4.43714">
        <ele>723.75708</ele>
      </trkpt>
      <trkpt lat="45.6525" lon="4.4371">
        <ele>724.280884</ele>
      </trkpt>
      <trkpt lat="45.65228" lon="4.43692">
        <ele>725.057983</ele>
      </trkpt>
      <trkpt lat="45.65178" lon="4.43685">
        <ele>728.369385</ele>
      </trkpt>
      <trkpt lat="45.65181" lon="4.43679">
        <ele>727.968994</ele>
      </trkpt>
      <trkpt lat="45.65173" lon="4.43683">
        <ele>728.576782</ele>
      </trkpt>
      <trkpt lat="45.65153" lon="4.43694">
        <ele>727.992737</ele>
      </trkpt>
      <trkpt lat="45.6514" lon="4.43715">
        <ele>724.94751</ele>
      </trkpt>
      <trkpt lat="45.65133" lon="4.43711">
        <ele>723.768921</ele>
      </trkpt>
      <trkpt lat="45.6514" lon="4.43761">
        <ele>721.269592</ele>
      </trkpt>
      <trkpt lat="45.65148" lon="4.43818">
        <ele>719.085327</ele>
      </trkpt>
      <trkpt lat="45.65148" lon="4.43863">
        <ele>714.685242</ele>
      </trkpt>
      <trkpt lat="45.65151" lon="4.43883">
        <ele>713.925415</ele>
      </trkpt>
      <trkpt lat="45.65152" lon="4.43947">
        <ele>707.936218</ele>
      </trkpt>
      <trkpt lat="45.65156" lon="4.43972">
        <ele>706.923767</ele>
      </trkpt>
      <trkpt lat="45.65151" lon="4.44013">
        <ele>701.284058</ele>
      </trkpt>
      <trkpt lat="45.65149" lon="4.44029">
        <ele>699.406982</ele>
      </trkpt>
      <trkpt lat="45.65144" lon="4.44063">
        <ele>695.763611</ele>
      </trkpt>
      <trkpt lat="45.65126" lon="4.44112">
        <ele>691.228638</ele>
      </trkpt>
      <trkpt lat="45.65124" lon="4.44114">
        <ele>690.828308</ele>
      </trkpt>
      <trkpt lat="45.65109" lon="4.44126">
        <ele>687.814697</ele>
      </trkpt>
      <trkpt lat="45.65104" lon="4.44138">
        <ele>686.687927</ele>
      </trkpt>
      <trkpt lat="45.65092" lon="4.44163">
        <ele>684.211731</ele>
      </trkpt>
      <trkpt lat="45.65075" lon="4.44228">
        <ele>678.445007</ele>
      </trkpt>
      <trkpt lat="45.65062" lon="4.44231">
        <ele>675.949707</ele>
      </trkpt>
      <trkpt lat="45.65052" lon="4.44247">
        <ele>674.092041</ele>
      </trkpt>
      <trkpt lat="45.6505" lon="4.4425">
        <ele>674.284729</ele>
      </trkpt>
      <trkpt lat="45.65025" lon="4.44278">
        <ele>676.89093</ele>
      </trkpt>
      <trkpt lat="45.65009" lon="4.44303">
        <ele>680.347473</ele>
      </trkpt>
      <trkpt lat="45.64999" lon="4.4433">
        <ele>681.838745</ele>
      </trkpt>
      <trkpt lat="45.64997" lon="4.44342">
        <ele>682.285034</ele>
      </trkpt>
      <trkpt lat="45.64987" lon="4.44345">
        <ele>681.782471</ele>
      </trkpt>
      <trkpt lat="45.64935" lon="4.44357">
        <ele>676.973633</ele>
      </trkpt>
      <trkpt lat="45.64929" lon="4.4436">
        <ele>676.309631</ele>
      </trkpt>
      <trkpt lat="45.64918" lon="4.44363">
        <ele>674.80011</ele>
      </trkpt>
      <trkpt lat="45.64912" lon="4.44367">
        <ele>673.947937</ele>
      </trkpt>
      <trkpt lat="45.64875" lon="4.44403">
        <ele>666.289978</ele>
      </trkpt>
      <trkpt lat="45.64848" lon="4.44417">
        <ele>661.784973</ele>
      </trkpt>
      <trkpt lat="45.64837" lon="4.44423">
        <ele>659.929993</ele>
      </trkpt>
      <trkpt lat="45.64804" lon="4.4443">
        <ele>655.035034</ele>
      </trkpt>
      <trkpt lat="45.64779" lon="4.44439">
        <ele>651.466248</ele>
      </trkpt>
      <trkpt lat="45.6475" lon="4.44463">
        <ele>647.130005</ele>
      </trkpt>
      <trkpt lat="45.64727" lon="4.4449">
        <ele>643.674988</ele>
      </trkpt>
      <trkpt lat="45.64697" lon="4.44524">
        <ele>640.468689</ele>
      </trkpt>
      <trkpt lat="45.64692" lon="4.44533">
        <ele>639.930481</ele>
      </trkpt>
      <trkpt lat="45.64671" lon="4.44559">
        <ele>637.619812</ele>
      </trkpt>
      <trkpt lat="45.64651" lon="4.44576">
        <ele>635.630371</ele>
      </trkpt>
      <trkpt lat="45.64615" lon="4.44597">
        <ele>632.340576</ele>
      </trkpt>
      <trkpt lat="45.64596" lon="4.44606">
        <ele>630.429993</ele>
      </trkpt>
      <trkpt lat="45.64542" lon="4.44631">
        <ele>625.198181</ele>
      </trkpt>
    </trkseg>
  </trk>
</gpx>